<?xml version="1.0" encoding="UTF-8" standalone="no" ?>
<gpx xmlns="http://www.topografix.com/GPX/1/1" xmlns:xsi="http://www.w3.org/2001/XMLSchema-instance" xsi:schemaLocation="http://www.topografix.com/GPX/1/1 http://www.topografix.com/GPX/1/1/gpx.xsd" version="1.1" creator="VisuGPX - https://www.visugpx.com">
  <metadata>
    <name>trace</name>
    <desc><![CDATA[Dondas de haut en bas.]]></desc>
  </metadata>
  <trk>
    <name><![CDATA[2024 06 06 Dondas Raymonde]]></name>
    <extensions>
      <line xmlns="http://www.topografix.com/GPX/gpx_style/0/2">
        <color>0000FF</color>
        <width>4</width>
      </line>
    </extensions>
    <trkseg>
      <trkpt lat="44.2532" lon="0.83801">
        <ele>192</ele>
        <time>2024-06-06T07:17:04.000Z</time>
      </trkpt>
      <trkpt lat="44.25332" lon="0.83808">
        <ele>193.8</ele>
        <time>2024-06-06T07:17:20.000Z</time>
      </trkpt>
      <trkpt lat="44.25338" lon="0.83821">
        <ele>194.2</ele>
        <time>2024-06-06T07:17:30.000Z</time>
      </trkpt>
      <trkpt lat="44.25341" lon="0.83826">
        <ele>194.3</ele>
        <time>2024-06-06T07:17:34.000Z</time>
      </trkpt>
      <trkpt lat="44.25343" lon="0.83831">
        <ele>194.3</ele>
        <time>2024-06-06T07:17:37.000Z</time>
      </trkpt>
      <trkpt lat="44.25347" lon="0.83839">
        <ele>194.6</ele>
        <time>2024-06-06T07:17:47.000Z</time>
      </trkpt>
      <trkpt lat="44.25343" lon="0.83854">
        <ele>194.8</ele>
        <time>2024-06-06T07:17:59.000Z</time>
      </trkpt>
      <trkpt lat="44.25341" lon="0.83861">
        <ele>195</ele>
        <time>2024-06-06T07:18:07.000Z</time>
      </trkpt>
      <trkpt lat="44.25339" lon="0.8387">
        <ele>195.3</ele>
        <time>2024-06-06T07:18:23.000Z</time>
      </trkpt>
      <trkpt lat="44.25337" lon="0.83875">
        <ele>195.4</ele>
        <time>2024-06-06T07:18:27.000Z</time>
      </trkpt>
      <trkpt lat="44.25331" lon="0.83889">
        <ele>195.7</ele>
        <time>2024-06-06T07:18:39.000Z</time>
      </trkpt>
      <trkpt lat="44.25327" lon="0.839">
        <ele>195.3</ele>
        <time>2024-06-06T07:18:47.000Z</time>
      </trkpt>
      <trkpt lat="44.25325" lon="0.83905">
        <ele>195.2</ele>
        <time>2024-06-06T07:18:51.000Z</time>
      </trkpt>
      <trkpt lat="44.2532" lon="0.83914">
        <ele>194.9</ele>
        <time>2024-06-06T07:18:59.000Z</time>
      </trkpt>
      <trkpt lat="44.2531" lon="0.83938">
        <ele>195.6</ele>
        <time>2024-06-06T07:19:17.000Z</time>
      </trkpt>
      <trkpt lat="44.25306" lon="0.83943">
        <ele>195.9</ele>
        <time>2024-06-06T07:19:21.000Z</time>
      </trkpt>
      <trkpt lat="44.25296" lon="0.8396">
        <ele>196.1</ele>
        <time>2024-06-06T07:19:35.000Z</time>
      </trkpt>
      <trkpt lat="44.25294" lon="0.83966">
        <ele>196.3</ele>
        <time>2024-06-06T07:19:39.000Z</time>
      </trkpt>
      <trkpt lat="44.25292" lon="0.83971">
        <ele>196.4</ele>
        <time>2024-06-06T07:19:45.000Z</time>
      </trkpt>
      <trkpt lat="44.25286" lon="0.83988">
        <ele>196.7</ele>
        <time>2024-06-06T07:19:57.000Z</time>
      </trkpt>
      <trkpt lat="44.25284" lon="0.83994">
        <ele>196.8</ele>
        <time>2024-06-06T07:20:01.000Z</time>
      </trkpt>
      <trkpt lat="44.25279" lon="0.84001">
        <ele>197</ele>
        <time>2024-06-06T07:20:09.000Z</time>
      </trkpt>
      <trkpt lat="44.25271" lon="0.84014">
        <ele>196.8</ele>
        <time>2024-06-06T07:20:21.000Z</time>
      </trkpt>
      <trkpt lat="44.25263" lon="0.84029">
        <ele>197</ele>
        <time>2024-06-06T07:20:33.000Z</time>
      </trkpt>
      <trkpt lat="44.25262" lon="0.84035">
        <ele>197.2</ele>
        <time>2024-06-06T07:20:37.000Z</time>
      </trkpt>
      <trkpt lat="44.25261" lon="0.84037">
        <ele>197.2</ele>
        <time>2024-06-06T07:20:39.000Z</time>
      </trkpt>
      <trkpt lat="44.25261" lon="0.84038">
        <ele>197.2</ele>
        <time>2024-06-06T07:20:41.000Z</time>
      </trkpt>
      <trkpt lat="44.25257" lon="0.84038">
        <ele>197.1</ele>
        <time>2024-06-06T07:20:49.000Z</time>
      </trkpt>
      <trkpt lat="44.25254" lon="0.84039">
        <ele>197</ele>
        <time>2024-06-06T07:20:57.000Z</time>
      </trkpt>
      <trkpt lat="44.2525" lon="0.84038">
        <ele>196.7</ele>
        <time>2024-06-06T07:21:05.000Z</time>
      </trkpt>
      <trkpt lat="44.25243" lon="0.84038">
        <ele>195.5</ele>
        <time>2024-06-06T07:21:13.000Z</time>
      </trkpt>
      <trkpt lat="44.2524" lon="0.84039">
        <ele>194.9</ele>
        <time>2024-06-06T07:21:17.000Z</time>
      </trkpt>
      <trkpt lat="44.25234" lon="0.84044">
        <ele>194.4</ele>
        <time>2024-06-06T07:21:25.000Z</time>
      </trkpt>
      <trkpt lat="44.2523" lon="0.84049">
        <ele>194.3</ele>
        <time>2024-06-06T07:21:31.000Z</time>
      </trkpt>
      <trkpt lat="44.25224" lon="0.84055">
        <ele>194.1</ele>
        <time>2024-06-06T07:21:39.000Z</time>
      </trkpt>
      <trkpt lat="44.25219" lon="0.84061">
        <ele>193.4</ele>
        <time>2024-06-06T07:21:45.000Z</time>
      </trkpt>
      <trkpt lat="44.25217" lon="0.84066">
        <ele>193.2</ele>
        <time>2024-06-06T07:21:49.000Z</time>
      </trkpt>
      <trkpt lat="44.25209" lon="0.84084">
        <ele>192.7</ele>
        <time>2024-06-06T07:22:01.000Z</time>
      </trkpt>
      <trkpt lat="44.25203" lon="0.84093">
        <ele>192.3</ele>
        <time>2024-06-06T07:22:09.000Z</time>
      </trkpt>
      <trkpt lat="44.252" lon="0.84099">
        <ele>192.2</ele>
        <time>2024-06-06T07:22:13.000Z</time>
      </trkpt>
      <trkpt lat="44.25193" lon="0.8411">
        <ele>192.4</ele>
        <time>2024-06-06T07:22:21.000Z</time>
      </trkpt>
      <trkpt lat="44.25186" lon="0.84119">
        <ele>191.4</ele>
        <time>2024-06-06T07:22:29.000Z</time>
      </trkpt>
      <trkpt lat="44.25184" lon="0.84124">
        <ele>191.2</ele>
        <time>2024-06-06T07:22:33.000Z</time>
      </trkpt>
      <trkpt lat="44.25178" lon="0.84133">
        <ele>190.4</ele>
        <time>2024-06-06T07:22:41.000Z</time>
      </trkpt>
      <trkpt lat="44.25174" lon="0.84143">
        <ele>190.3</ele>
        <time>2024-06-06T07:22:49.000Z</time>
      </trkpt>
      <trkpt lat="44.25174" lon="0.84146">
        <ele>190.4</ele>
        <time>2024-06-06T07:22:51.000Z</time>
      </trkpt>
      <trkpt lat="44.25171" lon="0.84152">
        <ele>190.3</ele>
        <time>2024-06-06T07:22:55.000Z</time>
      </trkpt>
      <trkpt lat="44.25169" lon="0.84157">
        <ele>190.5</ele>
        <time>2024-06-06T07:22:59.000Z</time>
      </trkpt>
      <trkpt lat="44.25167" lon="0.84164">
        <ele>190.8</ele>
        <time>2024-06-06T07:23:03.000Z</time>
      </trkpt>
      <trkpt lat="44.25165" lon="0.84177">
        <ele>191.3</ele>
        <time>2024-06-06T07:23:11.000Z</time>
      </trkpt>
      <trkpt lat="44.25164" lon="0.84181">
        <ele>191.3</ele>
        <time>2024-06-06T07:23:13.000Z</time>
      </trkpt>
      <trkpt lat="44.25161" lon="0.84187">
        <ele>190.9</ele>
        <time>2024-06-06T07:23:17.000Z</time>
      </trkpt>
      <trkpt lat="44.25158" lon="0.84195">
        <ele>190.6</ele>
        <time>2024-06-06T07:23:23.000Z</time>
      </trkpt>
      <trkpt lat="44.25148" lon="0.84239">
        <ele>188.9</ele>
        <time>2024-06-06T07:23:51.000Z</time>
      </trkpt>
      <trkpt lat="44.25146" lon="0.84246">
        <ele>188.7</ele>
        <time>2024-06-06T07:23:55.000Z</time>
      </trkpt>
      <trkpt lat="44.2514" lon="0.84279">
        <ele>187.3</ele>
        <time>2024-06-06T07:24:15.000Z</time>
      </trkpt>
      <trkpt lat="44.25139" lon="0.84291">
        <ele>187.6</ele>
        <time>2024-06-06T07:24:25.000Z</time>
      </trkpt>
      <trkpt lat="44.25139" lon="0.84293">
        <ele>187.7</ele>
        <time>2024-06-06T07:24:27.000Z</time>
      </trkpt>
      <trkpt lat="44.25135" lon="0.84317">
        <ele>187.2</ele>
        <time>2024-06-06T07:24:43.000Z</time>
      </trkpt>
      <trkpt lat="44.25134" lon="0.84323">
        <ele>187.1</ele>
        <time>2024-06-06T07:24:47.000Z</time>
      </trkpt>
      <trkpt lat="44.25134" lon="0.84335">
        <ele>186.8</ele>
        <time>2024-06-06T07:24:55.000Z</time>
      </trkpt>
      <trkpt lat="44.25132" lon="0.84348">
        <ele>185.7</ele>
        <time>2024-06-06T07:25:03.000Z</time>
      </trkpt>
      <trkpt lat="44.25131" lon="0.84359">
        <ele>184.9</ele>
        <time>2024-06-06T07:25:11.000Z</time>
      </trkpt>
      <trkpt lat="44.25132" lon="0.84365">
        <ele>184.5</ele>
        <time>2024-06-06T07:25:15.000Z</time>
      </trkpt>
      <trkpt lat="44.25133" lon="0.84374">
        <ele>184</ele>
        <time>2024-06-06T07:25:23.000Z</time>
      </trkpt>
      <trkpt lat="44.25135" lon="0.84376">
        <ele>184</ele>
        <time>2024-06-06T07:25:25.000Z</time>
      </trkpt>
      <trkpt lat="44.25134" lon="0.84382">
        <ele>183.3</ele>
        <time>2024-06-06T07:25:29.000Z</time>
      </trkpt>
      <trkpt lat="44.25137" lon="0.84393">
        <ele>182.5</ele>
        <time>2024-06-06T07:25:37.000Z</time>
      </trkpt>
      <trkpt lat="44.25139" lon="0.84404">
        <ele>181.4</ele>
        <time>2024-06-06T07:25:45.000Z</time>
      </trkpt>
      <trkpt lat="44.25142" lon="0.8441">
        <ele>181</ele>
        <time>2024-06-06T07:25:49.000Z</time>
      </trkpt>
      <trkpt lat="44.25147" lon="0.84436">
        <ele>179.9</ele>
        <time>2024-06-06T07:26:05.000Z</time>
      </trkpt>
      <trkpt lat="44.2515" lon="0.84472">
        <ele>178.5</ele>
        <time>2024-06-06T07:26:25.000Z</time>
      </trkpt>
      <trkpt lat="44.25152" lon="0.84483">
        <ele>178.5</ele>
        <time>2024-06-06T07:26:33.000Z</time>
      </trkpt>
      <trkpt lat="44.25151" lon="0.84495">
        <ele>177.7</ele>
        <time>2024-06-06T07:26:41.000Z</time>
      </trkpt>
      <trkpt lat="44.25151" lon="0.84498">
        <ele>177.6</ele>
        <time>2024-06-06T07:26:43.000Z</time>
      </trkpt>
      <trkpt lat="44.2515" lon="0.84504">
        <ele>177.3</ele>
        <time>2024-06-06T07:26:47.000Z</time>
      </trkpt>
      <trkpt lat="44.25147" lon="0.84513">
        <ele>176.7</ele>
        <time>2024-06-06T07:26:55.000Z</time>
      </trkpt>
      <trkpt lat="44.25146" lon="0.84516">
        <ele>176.6</ele>
        <time>2024-06-06T07:27:01.000Z</time>
      </trkpt>
      <trkpt lat="44.25145" lon="0.84519">
        <ele>176.3</ele>
        <time>2024-06-06T07:27:09.000Z</time>
      </trkpt>
      <trkpt lat="44.25143" lon="0.8452">
        <ele>175.9</ele>
        <time>2024-06-06T07:27:17.000Z</time>
      </trkpt>
      <trkpt lat="44.25141" lon="0.84519">
        <ele>175.1</ele>
        <time>2024-06-06T07:27:33.000Z</time>
      </trkpt>
      <trkpt lat="44.25136" lon="0.84518">
        <ele>174.6</ele>
        <time>2024-06-06T07:27:41.000Z</time>
      </trkpt>
      <trkpt lat="44.25132" lon="0.84515">
        <ele>174.3</ele>
        <time>2024-06-06T07:27:49.000Z</time>
      </trkpt>
      <trkpt lat="44.2513" lon="0.84512">
        <ele>174</ele>
        <time>2024-06-06T07:27:53.000Z</time>
      </trkpt>
      <trkpt lat="44.25127" lon="0.84506">
        <ele>173.3</ele>
        <time>2024-06-06T07:28:01.000Z</time>
      </trkpt>
      <trkpt lat="44.25124" lon="0.84502">
        <ele>172.6</ele>
        <time>2024-06-06T07:28:05.000Z</time>
      </trkpt>
      <trkpt lat="44.25123" lon="0.84497">
        <ele>172.2</ele>
        <time>2024-06-06T07:28:09.000Z</time>
      </trkpt>
      <trkpt lat="44.25118" lon="0.84489">
        <ele>171.3</ele>
        <time>2024-06-06T07:28:17.000Z</time>
      </trkpt>
      <trkpt lat="44.25113" lon="0.84479">
        <ele>169.9</ele>
        <time>2024-06-06T07:28:25.000Z</time>
      </trkpt>
      <trkpt lat="44.25111" lon="0.84475">
        <ele>169.2</ele>
        <time>2024-06-06T07:28:29.000Z</time>
      </trkpt>
      <trkpt lat="44.25098" lon="0.84457">
        <ele>168.5</ele>
        <time>2024-06-06T07:28:45.000Z</time>
      </trkpt>
      <trkpt lat="44.25091" lon="0.84449">
        <ele>167.8</ele>
        <time>2024-06-06T07:28:53.000Z</time>
      </trkpt>
      <trkpt lat="44.25088" lon="0.84444">
        <ele>167.3</ele>
        <time>2024-06-06T07:28:57.000Z</time>
      </trkpt>
      <trkpt lat="44.25083" lon="0.84434">
        <ele>165.9</ele>
        <time>2024-06-06T07:29:05.000Z</time>
      </trkpt>
      <trkpt lat="44.25081" lon="0.84424">
        <ele>164.7</ele>
        <time>2024-06-06T07:29:13.000Z</time>
      </trkpt>
      <trkpt lat="44.2508" lon="0.84413">
        <ele>163.9</ele>
        <time>2024-06-06T07:29:21.000Z</time>
      </trkpt>
      <trkpt lat="44.25079" lon="0.8441">
        <ele>163.9</ele>
        <time>2024-06-06T07:29:23.000Z</time>
      </trkpt>
      <trkpt lat="44.25076" lon="0.84404">
        <ele>163.6</ele>
        <time>2024-06-06T07:29:28.000Z</time>
      </trkpt>
      <trkpt lat="44.25076" lon="0.84404">
        <ele>163.5</ele>
        <time>2024-06-06T07:29:29.000Z</time>
      </trkpt>
      <trkpt lat="44.25074" lon="0.84404">
        <ele>163.3</ele>
        <time>2024-06-06T07:29:31.000Z</time>
      </trkpt>
      <trkpt lat="44.25068" lon="0.84406">
        <ele>162.8</ele>
        <time>2024-06-06T07:29:37.000Z</time>
      </trkpt>
      <trkpt lat="44.25065" lon="0.84408">
        <ele>162.7</ele>
        <time>2024-06-06T07:29:41.000Z</time>
      </trkpt>
      <trkpt lat="44.25063" lon="0.84409">
        <ele>162.5</ele>
        <time>2024-06-06T07:29:45.000Z</time>
      </trkpt>
      <trkpt lat="44.25059" lon="0.84409">
        <ele>162.2</ele>
        <time>2024-06-06T07:29:53.000Z</time>
      </trkpt>
      <trkpt lat="44.25056" lon="0.84413">
        <ele>162.5</ele>
        <time>2024-06-06T07:29:57.000Z</time>
      </trkpt>
      <trkpt lat="44.25053" lon="0.84415">
        <ele>161.8</ele>
        <time>2024-06-06T07:30:01.000Z</time>
      </trkpt>
      <trkpt lat="44.25051" lon="0.84416">
        <ele>161.5</ele>
        <time>2024-06-06T07:30:03.000Z</time>
      </trkpt>
      <trkpt lat="44.25051" lon="0.84417">
        <ele>161.6</ele>
        <time>2024-06-06T07:30:05.000Z</time>
      </trkpt>
      <trkpt lat="44.25051" lon="0.84419">
        <ele>161.9</ele>
        <time>2024-06-06T07:30:07.000Z</time>
      </trkpt>
      <trkpt lat="44.25048" lon="0.84425">
        <ele>161.7</ele>
        <time>2024-06-06T07:30:15.000Z</time>
      </trkpt>
      <trkpt lat="44.25044" lon="0.84433">
        <ele>162</ele>
        <time>2024-06-06T07:30:23.000Z</time>
      </trkpt>
      <trkpt lat="44.25043" lon="0.84435">
        <ele>162</ele>
        <time>2024-06-06T07:30:25.000Z</time>
      </trkpt>
      <trkpt lat="44.25043" lon="0.84437">
        <ele>162.1</ele>
        <time>2024-06-06T07:30:27.000Z</time>
      </trkpt>
      <trkpt lat="44.25044" lon="0.8444">
        <ele>162.8</ele>
        <time>2024-06-06T07:30:31.000Z</time>
      </trkpt>
      <trkpt lat="44.25046" lon="0.84443">
        <ele>164</ele>
        <time>2024-06-06T07:30:37.000Z</time>
      </trkpt>
      <trkpt lat="44.2505" lon="0.84446">
        <ele>166</ele>
        <time>2024-06-06T07:30:45.000Z</time>
      </trkpt>
      <trkpt lat="44.25053" lon="0.84447">
        <ele>166.8</ele>
        <time>2024-06-06T07:30:49.000Z</time>
      </trkpt>
      <trkpt lat="44.25054" lon="0.84448">
        <ele>167.5</ele>
        <time>2024-06-06T07:30:51.000Z</time>
      </trkpt>
      <trkpt lat="44.25055" lon="0.84449">
        <ele>168.1</ele>
        <time>2024-06-06T07:30:53.000Z</time>
      </trkpt>
      <trkpt lat="44.25057" lon="0.84451">
        <ele>168.8</ele>
        <time>2024-06-06T07:30:55.000Z</time>
      </trkpt>
      <trkpt lat="44.25059" lon="0.84454">
        <ele>169.6</ele>
        <time>2024-06-06T07:30:57.000Z</time>
      </trkpt>
      <trkpt lat="44.25062" lon="0.84461">
        <ele>170.9</ele>
        <time>2024-06-06T07:31:01.000Z</time>
      </trkpt>
      <trkpt lat="44.25063" lon="0.84462">
        <ele>171</ele>
        <time>2024-06-06T07:31:03.000Z</time>
      </trkpt>
      <trkpt lat="44.25065" lon="0.84466">
        <ele>171.6</ele>
        <time>2024-06-06T07:31:07.000Z</time>
      </trkpt>
      <trkpt lat="44.25066" lon="0.84471">
        <ele>172.4</ele>
        <time>2024-06-06T07:31:11.000Z</time>
      </trkpt>
      <trkpt lat="44.25067" lon="0.84477">
        <ele>173.2</ele>
        <time>2024-06-06T07:31:17.000Z</time>
      </trkpt>
      <trkpt lat="44.25065" lon="0.84482">
        <ele>174.2</ele>
        <time>2024-06-06T07:31:25.000Z</time>
      </trkpt>
      <trkpt lat="44.25064" lon="0.84483">
        <ele>174.5</ele>
        <time>2024-06-06T07:31:27.000Z</time>
      </trkpt>
      <trkpt lat="44.25063" lon="0.84488">
        <ele>175.2</ele>
        <time>2024-06-06T07:31:31.000Z</time>
      </trkpt>
      <trkpt lat="44.2506" lon="0.84496">
        <ele>176.4</ele>
        <time>2024-06-06T07:31:39.000Z</time>
      </trkpt>
      <trkpt lat="44.25056" lon="0.84504">
        <ele>177.5</ele>
        <time>2024-06-06T07:31:47.000Z</time>
      </trkpt>
      <trkpt lat="44.25048" lon="0.84516">
        <ele>178.7</ele>
        <time>2024-06-06T07:31:59.000Z</time>
      </trkpt>
      <trkpt lat="44.25046" lon="0.84521">
        <ele>179.3</ele>
        <time>2024-06-06T07:32:03.000Z</time>
      </trkpt>
      <trkpt lat="44.25037" lon="0.84535">
        <ele>180.9</ele>
        <time>2024-06-06T07:32:19.000Z</time>
      </trkpt>
      <trkpt lat="44.25032" lon="0.84543">
        <ele>181.4</ele>
        <time>2024-06-06T07:32:27.000Z</time>
      </trkpt>
      <trkpt lat="44.25031" lon="0.84547">
        <ele>181.6</ele>
        <time>2024-06-06T07:32:31.000Z</time>
      </trkpt>
      <trkpt lat="44.25023" lon="0.84559">
        <ele>182.2</ele>
        <time>2024-06-06T07:32:43.000Z</time>
      </trkpt>
      <trkpt lat="44.2502" lon="0.84568">
        <ele>182.9</ele>
        <time>2024-06-06T07:32:51.000Z</time>
      </trkpt>
      <trkpt lat="44.2502" lon="0.84573">
        <ele>183.2</ele>
        <time>2024-06-06T07:33:51.000Z</time>
      </trkpt>
      <trkpt lat="44.25019" lon="0.84575">
        <ele>183.4</ele>
        <time>2024-06-06T07:35:03.000Z</time>
      </trkpt>
      <trkpt lat="44.2501" lon="0.84576">
        <ele>183.5</ele>
        <time>2024-06-06T07:37:13.000Z</time>
      </trkpt>
      <trkpt lat="44.25005" lon="0.84575">
        <ele>183.4</ele>
        <time>2024-06-06T07:37:17.000Z</time>
      </trkpt>
      <trkpt lat="44.25003" lon="0.84575">
        <ele>183.4</ele>
        <time>2024-06-06T07:37:19.000Z</time>
      </trkpt>
      <trkpt lat="44.24996" lon="0.84569">
        <ele>182.8</ele>
        <time>2024-06-06T07:37:27.000Z</time>
      </trkpt>
      <trkpt lat="44.24954" lon="0.84555">
        <ele>179.7</ele>
        <time>2024-06-06T07:38:03.000Z</time>
      </trkpt>
      <trkpt lat="44.24945" lon="0.84553">
        <ele>178.6</ele>
        <time>2024-06-06T07:38:11.000Z</time>
      </trkpt>
      <trkpt lat="44.24926" lon="0.84547">
        <ele>176.5</ele>
        <time>2024-06-06T07:38:27.000Z</time>
      </trkpt>
      <trkpt lat="44.24921" lon="0.84544">
        <ele>175.9</ele>
        <time>2024-06-06T07:38:31.000Z</time>
      </trkpt>
      <trkpt lat="44.24919" lon="0.84542">
        <ele>175.6</ele>
        <time>2024-06-06T07:38:33.000Z</time>
      </trkpt>
      <trkpt lat="44.24916" lon="0.84537">
        <ele>175</ele>
        <time>2024-06-06T07:38:37.000Z</time>
      </trkpt>
      <trkpt lat="44.24913" lon="0.84527">
        <ele>174.5</ele>
        <time>2024-06-06T07:38:45.000Z</time>
      </trkpt>
      <trkpt lat="44.24909" lon="0.8452">
        <ele>174.8</ele>
        <time>2024-06-06T07:38:51.000Z</time>
      </trkpt>
      <trkpt lat="44.24907" lon="0.84511">
        <ele>175</ele>
        <time>2024-06-06T07:38:57.000Z</time>
      </trkpt>
      <trkpt lat="44.24906" lon="0.84505">
        <ele>175.1</ele>
        <time>2024-06-06T07:39:01.000Z</time>
      </trkpt>
      <trkpt lat="44.24902" lon="0.84493">
        <ele>175.9</ele>
        <time>2024-06-06T07:39:09.000Z</time>
      </trkpt>
      <trkpt lat="44.24895" lon="0.84475">
        <ele>177.3</ele>
        <time>2024-06-06T07:39:21.000Z</time>
      </trkpt>
      <trkpt lat="44.24891" lon="0.84469">
        <ele>177.8</ele>
        <time>2024-06-06T07:39:25.000Z</time>
      </trkpt>
      <trkpt lat="44.24875" lon="0.84449">
        <ele>178.6</ele>
        <time>2024-06-06T07:39:41.000Z</time>
      </trkpt>
      <trkpt lat="44.24871" lon="0.84445">
        <ele>178.7</ele>
        <time>2024-06-06T07:39:45.000Z</time>
      </trkpt>
      <trkpt lat="44.24867" lon="0.84441">
        <ele>178.5</ele>
        <time>2024-06-06T07:39:49.000Z</time>
      </trkpt>
      <trkpt lat="44.24858" lon="0.84435">
        <ele>177.8</ele>
        <time>2024-06-06T07:39:57.000Z</time>
      </trkpt>
      <trkpt lat="44.24849" lon="0.84429">
        <ele>176.9</ele>
        <time>2024-06-06T07:40:05.000Z</time>
      </trkpt>
      <trkpt lat="44.24839" lon="0.84424">
        <ele>176</ele>
        <time>2024-06-06T07:40:13.000Z</time>
      </trkpt>
      <trkpt lat="44.2483" lon="0.84421">
        <ele>175.3</ele>
        <time>2024-06-06T07:40:21.000Z</time>
      </trkpt>
      <trkpt lat="44.24816" lon="0.84416">
        <ele>174.3</ele>
        <time>2024-06-06T07:40:33.000Z</time>
      </trkpt>
      <trkpt lat="44.24788" lon="0.84409">
        <ele>172.8</ele>
        <time>2024-06-06T07:41:01.000Z</time>
      </trkpt>
      <trkpt lat="44.24779" lon="0.84406">
        <ele>172.2</ele>
        <time>2024-06-06T07:41:09.000Z</time>
      </trkpt>
      <trkpt lat="44.24768" lon="0.84403">
        <ele>172.6</ele>
        <time>2024-06-06T07:41:17.000Z</time>
      </trkpt>
      <trkpt lat="44.24756" lon="0.84401">
        <ele>173.7</ele>
        <time>2024-06-06T07:41:25.000Z</time>
      </trkpt>
      <trkpt lat="44.24736" lon="0.84397">
        <ele>174.8</ele>
        <time>2024-06-06T07:41:41.000Z</time>
      </trkpt>
      <trkpt lat="44.24726" lon="0.84394">
        <ele>175</ele>
        <time>2024-06-06T07:41:49.000Z</time>
      </trkpt>
      <trkpt lat="44.24721" lon="0.84393">
        <ele>175.2</ele>
        <time>2024-06-06T07:41:53.000Z</time>
      </trkpt>
      <trkpt lat="44.24708" lon="0.84392">
        <ele>175.6</ele>
        <time>2024-06-06T07:42:05.000Z</time>
      </trkpt>
      <trkpt lat="44.2469" lon="0.84389">
        <ele>176.5</ele>
        <time>2024-06-06T07:42:21.000Z</time>
      </trkpt>
      <trkpt lat="44.24673" lon="0.84387">
        <ele>178.4</ele>
        <time>2024-06-06T07:42:37.000Z</time>
      </trkpt>
      <trkpt lat="44.24664" lon="0.84385">
        <ele>179.2</ele>
        <time>2024-06-06T07:42:45.000Z</time>
      </trkpt>
      <trkpt lat="44.24656" lon="0.84384">
        <ele>179.9</ele>
        <time>2024-06-06T07:42:53.000Z</time>
      </trkpt>
      <trkpt lat="44.24631" lon="0.84379">
        <ele>182.3</ele>
        <time>2024-06-06T07:43:17.000Z</time>
      </trkpt>
      <trkpt lat="44.24627" lon="0.84378">
        <ele>182.7</ele>
        <time>2024-06-06T07:43:21.000Z</time>
      </trkpt>
      <trkpt lat="44.24618" lon="0.84376">
        <ele>183.7</ele>
        <time>2024-06-06T07:43:29.000Z</time>
      </trkpt>
      <trkpt lat="44.24605" lon="0.84373">
        <ele>185.4</ele>
        <time>2024-06-06T07:43:41.000Z</time>
      </trkpt>
      <trkpt lat="44.24591" lon="0.84366">
        <ele>187.7</ele>
        <time>2024-06-06T07:43:57.000Z</time>
      </trkpt>
      <trkpt lat="44.24587" lon="0.84364">
        <ele>188.3</ele>
        <time>2024-06-06T07:44:01.000Z</time>
      </trkpt>
      <trkpt lat="44.24584" lon="0.84363">
        <ele>188.9</ele>
        <time>2024-06-06T07:44:05.000Z</time>
      </trkpt>
      <trkpt lat="44.24578" lon="0.84358">
        <ele>190</ele>
        <time>2024-06-06T07:44:13.000Z</time>
      </trkpt>
      <trkpt lat="44.24568" lon="0.84353">
        <ele>191.9</ele>
        <time>2024-06-06T07:44:25.000Z</time>
      </trkpt>
      <trkpt lat="44.24561" lon="0.8435">
        <ele>193.3</ele>
        <time>2024-06-06T07:44:33.000Z</time>
      </trkpt>
      <trkpt lat="44.24554" lon="0.84346">
        <ele>194.9</ele>
        <time>2024-06-06T07:44:41.000Z</time>
      </trkpt>
      <trkpt lat="44.24551" lon="0.84345">
        <ele>195.6</ele>
        <time>2024-06-06T07:44:45.000Z</time>
      </trkpt>
      <trkpt lat="44.24546" lon="0.84341">
        <ele>196.8</ele>
        <time>2024-06-06T07:44:53.000Z</time>
      </trkpt>
      <trkpt lat="44.2454" lon="0.84338">
        <ele>197.9</ele>
        <time>2024-06-06T07:45:01.000Z</time>
      </trkpt>
      <trkpt lat="44.24538" lon="0.84336">
        <ele>198.4</ele>
        <time>2024-06-06T07:45:05.000Z</time>
      </trkpt>
      <trkpt lat="44.24534" lon="0.84335">
        <ele>199</ele>
        <time>2024-06-06T07:45:09.000Z</time>
      </trkpt>
      <trkpt lat="44.24528" lon="0.84331">
        <ele>200.2</ele>
        <time>2024-06-06T07:45:17.000Z</time>
      </trkpt>
      <trkpt lat="44.24522" lon="0.84328">
        <ele>201.4</ele>
        <time>2024-06-06T07:45:25.000Z</time>
      </trkpt>
      <trkpt lat="44.24515" lon="0.84324">
        <ele>202.6</ele>
        <time>2024-06-06T07:45:33.000Z</time>
      </trkpt>
      <trkpt lat="44.24509" lon="0.84321">
        <ele>203.4</ele>
        <time>2024-06-06T07:45:39.000Z</time>
      </trkpt>
      <trkpt lat="44.24502" lon="0.84316">
        <ele>204.5</ele>
        <time>2024-06-06T07:45:47.000Z</time>
      </trkpt>
      <trkpt lat="44.24498" lon="0.84314">
        <ele>204.7</ele>
        <time>2024-06-06T07:45:51.000Z</time>
      </trkpt>
      <trkpt lat="44.24495" lon="0.84311">
        <ele>204.8</ele>
        <time>2024-06-06T07:45:55.000Z</time>
      </trkpt>
      <trkpt lat="44.24488" lon="0.84308">
        <ele>204.9</ele>
        <time>2024-06-06T07:46:03.000Z</time>
      </trkpt>
      <trkpt lat="44.24485" lon="0.84306">
        <ele>205</ele>
        <time>2024-06-06T07:46:07.000Z</time>
      </trkpt>
      <trkpt lat="44.24477" lon="0.84301">
        <ele>204.8</ele>
        <time>2024-06-06T07:46:23.000Z</time>
      </trkpt>
      <trkpt lat="44.24475" lon="0.84299">
        <ele>204.8</ele>
        <time>2024-06-06T07:46:59.000Z</time>
      </trkpt>
      <trkpt lat="44.24472" lon="0.843">
        <ele>204.8</ele>
        <time>2024-06-06T07:50:15.000Z</time>
      </trkpt>
      <trkpt lat="44.2447" lon="0.84298">
        <ele>204.6</ele>
        <time>2024-06-06T07:50:19.000Z</time>
      </trkpt>
      <trkpt lat="44.24464" lon="0.84296">
        <ele>204.1</ele>
        <time>2024-06-06T07:50:27.000Z</time>
      </trkpt>
      <trkpt lat="44.24461" lon="0.84296">
        <ele>203.9</ele>
        <time>2024-06-06T07:50:31.000Z</time>
      </trkpt>
      <trkpt lat="44.24455" lon="0.84294">
        <ele>203.4</ele>
        <time>2024-06-06T07:50:39.000Z</time>
      </trkpt>
      <trkpt lat="44.24446" lon="0.84293">
        <ele>202.7</ele>
        <time>2024-06-06T07:50:47.000Z</time>
      </trkpt>
      <trkpt lat="44.24437" lon="0.84292">
        <ele>202</ele>
        <time>2024-06-06T07:50:55.000Z</time>
      </trkpt>
      <trkpt lat="44.24421" lon="0.84293">
        <ele>200.9</ele>
        <time>2024-06-06T07:51:09.000Z</time>
      </trkpt>
      <trkpt lat="44.24417" lon="0.84295">
        <ele>200.6</ele>
        <time>2024-06-06T07:51:13.000Z</time>
      </trkpt>
      <trkpt lat="44.2441" lon="0.84296">
        <ele>200</ele>
        <time>2024-06-06T07:51:19.000Z</time>
      </trkpt>
      <trkpt lat="44.24408" lon="0.84297">
        <ele>199.8</ele>
        <time>2024-06-06T07:51:21.000Z</time>
      </trkpt>
      <trkpt lat="44.24404" lon="0.843">
        <ele>199.4</ele>
        <time>2024-06-06T07:51:25.000Z</time>
      </trkpt>
      <trkpt lat="44.24388" lon="0.84315">
        <ele>198.6</ele>
        <time>2024-06-06T07:51:41.000Z</time>
      </trkpt>
      <trkpt lat="44.2438" lon="0.84322">
        <ele>198.7</ele>
        <time>2024-06-06T07:51:49.000Z</time>
      </trkpt>
      <trkpt lat="44.24376" lon="0.84325">
        <ele>198.6</ele>
        <time>2024-06-06T07:51:53.000Z</time>
      </trkpt>
      <trkpt lat="44.24372" lon="0.84329">
        <ele>198.6</ele>
        <time>2024-06-06T07:51:57.000Z</time>
      </trkpt>
      <trkpt lat="44.24369" lon="0.84334">
        <ele>198.6</ele>
        <time>2024-06-06T07:52:01.000Z</time>
      </trkpt>
      <trkpt lat="44.24368" lon="0.84337">
        <ele>198.4</ele>
        <time>2024-06-06T07:52:03.000Z</time>
      </trkpt>
      <trkpt lat="44.24368" lon="0.84341">
        <ele>198.3</ele>
        <time>2024-06-06T07:52:05.000Z</time>
      </trkpt>
      <trkpt lat="44.24368" lon="0.84344">
        <ele>198.2</ele>
        <time>2024-06-06T07:52:07.000Z</time>
      </trkpt>
      <trkpt lat="44.2437" lon="0.84351">
        <ele>198.2</ele>
        <time>2024-06-06T07:52:11.000Z</time>
      </trkpt>
      <trkpt lat="44.24374" lon="0.84363">
        <ele>198.4</ele>
        <time>2024-06-06T07:52:19.000Z</time>
      </trkpt>
      <trkpt lat="44.24376" lon="0.84368">
        <ele>198.5</ele>
        <time>2024-06-06T07:52:23.000Z</time>
      </trkpt>
      <trkpt lat="44.24379" lon="0.84381">
        <ele>198.6</ele>
        <time>2024-06-06T07:52:31.000Z</time>
      </trkpt>
      <trkpt lat="44.24381" lon="0.84395">
        <ele>199</ele>
        <time>2024-06-06T07:52:39.000Z</time>
      </trkpt>
      <trkpt lat="44.24382" lon="0.84409">
        <ele>199.5</ele>
        <time>2024-06-06T07:52:47.000Z</time>
      </trkpt>
      <trkpt lat="44.24381" lon="0.84436">
        <ele>199.8</ele>
        <time>2024-06-06T07:53:03.000Z</time>
      </trkpt>
      <trkpt lat="44.24379" lon="0.84492">
        <ele>201.7</ele>
        <time>2024-06-06T07:53:35.000Z</time>
      </trkpt>
      <trkpt lat="44.24381" lon="0.8452">
        <ele>202.3</ele>
        <time>2024-06-06T07:53:51.000Z</time>
      </trkpt>
      <trkpt lat="44.24382" lon="0.84534">
        <ele>202.7</ele>
        <time>2024-06-06T07:53:59.000Z</time>
      </trkpt>
      <trkpt lat="44.24384" lon="0.84548">
        <ele>203.4</ele>
        <time>2024-06-06T07:54:07.000Z</time>
      </trkpt>
      <trkpt lat="44.24387" lon="0.8456">
        <ele>203.9</ele>
        <time>2024-06-06T07:54:15.000Z</time>
      </trkpt>
      <trkpt lat="44.2439" lon="0.84574">
        <ele>203.9</ele>
        <time>2024-06-06T07:54:23.000Z</time>
      </trkpt>
      <trkpt lat="44.2442" lon="0.84656">
        <ele>203.5</ele>
        <time>2024-06-06T07:55:17.000Z</time>
      </trkpt>
      <trkpt lat="44.24421" lon="0.84661">
        <ele>203.7</ele>
        <time>2024-06-06T07:55:23.000Z</time>
      </trkpt>
      <trkpt lat="44.24423" lon="0.84665">
        <ele>203.7</ele>
        <time>2024-06-06T07:55:27.000Z</time>
      </trkpt>
      <trkpt lat="44.24424" lon="0.84667">
        <ele>203.7</ele>
        <time>2024-06-06T07:55:29.000Z</time>
      </trkpt>
      <trkpt lat="44.24443" lon="0.84717">
        <ele>203</ele>
        <time>2024-06-06T07:56:01.000Z</time>
      </trkpt>
      <trkpt lat="44.24471" lon="0.84789">
        <ele>203</ele>
        <time>2024-06-06T07:56:49.000Z</time>
      </trkpt>
      <trkpt lat="44.24476" lon="0.84801">
        <ele>203</ele>
        <time>2024-06-06T07:56:57.000Z</time>
      </trkpt>
      <trkpt lat="44.24486" lon="0.84824">
        <ele>203</ele>
        <time>2024-06-06T07:57:13.000Z</time>
      </trkpt>
      <trkpt lat="44.24496" lon="0.84848">
        <ele>203.4</ele>
        <time>2024-06-06T07:57:29.000Z</time>
      </trkpt>
      <trkpt lat="44.24522" lon="0.84904">
        <ele>204.4</ele>
        <time>2024-06-06T07:58:09.000Z</time>
      </trkpt>
      <trkpt lat="44.24527" lon="0.84915">
        <ele>204.9</ele>
        <time>2024-06-06T07:58:17.000Z</time>
      </trkpt>
      <trkpt lat="44.24533" lon="0.84925">
        <ele>205.3</ele>
        <time>2024-06-06T07:58:25.000Z</time>
      </trkpt>
      <trkpt lat="44.24562" lon="0.84979">
        <ele>207.2</ele>
        <time>2024-06-06T07:59:05.000Z</time>
      </trkpt>
      <trkpt lat="44.24564" lon="0.84984">
        <ele>207.3</ele>
        <time>2024-06-06T07:59:09.000Z</time>
      </trkpt>
      <trkpt lat="44.24568" lon="0.84992">
        <ele>207.4</ele>
        <time>2024-06-06T07:59:17.000Z</time>
      </trkpt>
      <trkpt lat="44.24568" lon="0.84994">
        <ele>207.5</ele>
        <time>2024-06-06T07:59:21.000Z</time>
      </trkpt>
      <trkpt lat="44.24569" lon="0.84995">
        <ele>207.5</ele>
        <time>2024-06-06T07:59:25.000Z</time>
      </trkpt>
      <trkpt lat="44.24572" lon="0.84998">
        <ele>207.6</ele>
        <time>2024-06-06T07:59:29.000Z</time>
      </trkpt>
      <trkpt lat="44.24578" lon="0.85008">
        <ele>207.5</ele>
        <time>2024-06-06T07:59:37.000Z</time>
      </trkpt>
      <trkpt lat="44.24584" lon="0.8502">
        <ele>207.3</ele>
        <time>2024-06-06T07:59:45.000Z</time>
      </trkpt>
      <trkpt lat="44.24588" lon="0.85032">
        <ele>206.9</ele>
        <time>2024-06-06T07:59:55.000Z</time>
      </trkpt>
      <trkpt lat="44.24593" lon="0.85041">
        <ele>206.7</ele>
        <time>2024-06-06T08:00:03.000Z</time>
      </trkpt>
      <trkpt lat="44.24596" lon="0.8505">
        <ele>206.6</ele>
        <time>2024-06-06T08:00:11.000Z</time>
      </trkpt>
      <trkpt lat="44.24597" lon="0.85052">
        <ele>206.5</ele>
        <time>2024-06-06T08:00:15.000Z</time>
      </trkpt>
      <trkpt lat="44.24596" lon="0.85059">
        <ele>206.5</ele>
        <time>2024-06-06T08:00:31.000Z</time>
      </trkpt>
      <trkpt lat="44.24595" lon="0.85062">
        <ele>206.4</ele>
        <time>2024-06-06T08:00:35.000Z</time>
      </trkpt>
      <trkpt lat="44.24593" lon="0.85066">
        <ele>206.3</ele>
        <time>2024-06-06T08:00:39.000Z</time>
      </trkpt>
      <trkpt lat="44.24587" lon="0.85073">
        <ele>206.1</ele>
        <time>2024-06-06T08:00:47.000Z</time>
      </trkpt>
      <trkpt lat="44.24581" lon="0.8508">
        <ele>205.7</ele>
        <time>2024-06-06T08:00:55.000Z</time>
      </trkpt>
      <trkpt lat="44.24577" lon="0.85083">
        <ele>205.3</ele>
        <time>2024-06-06T08:00:59.000Z</time>
      </trkpt>
      <trkpt lat="44.24564" lon="0.85098">
        <ele>203.2</ele>
        <time>2024-06-06T08:01:15.000Z</time>
      </trkpt>
      <trkpt lat="44.24555" lon="0.85106">
        <ele>202.1</ele>
        <time>2024-06-06T08:01:23.000Z</time>
      </trkpt>
      <trkpt lat="44.24549" lon="0.85115">
        <ele>201.1</ele>
        <time>2024-06-06T08:01:31.000Z</time>
      </trkpt>
      <trkpt lat="44.24535" lon="0.85129">
        <ele>199.1</ele>
        <time>2024-06-06T08:01:47.000Z</time>
      </trkpt>
      <trkpt lat="44.24521" lon="0.85145">
        <ele>196.9</ele>
        <time>2024-06-06T08:02:03.000Z</time>
      </trkpt>
      <trkpt lat="44.24493" lon="0.85176">
        <ele>191.9</ele>
        <time>2024-06-06T08:02:35.000Z</time>
      </trkpt>
      <trkpt lat="44.24478" lon="0.85194">
        <ele>189.8</ele>
        <time>2024-06-06T08:02:51.000Z</time>
      </trkpt>
      <trkpt lat="44.2447" lon="0.85202">
        <ele>188.8</ele>
        <time>2024-06-06T08:02:59.000Z</time>
      </trkpt>
      <trkpt lat="44.24455" lon="0.8522">
        <ele>187.8</ele>
        <time>2024-06-06T08:03:15.000Z</time>
      </trkpt>
      <trkpt lat="44.24424" lon="0.85255">
        <ele>185.5</ele>
        <time>2024-06-06T08:03:47.000Z</time>
      </trkpt>
      <trkpt lat="44.24385" lon="0.85299">
        <ele>183.7</ele>
        <time>2024-06-06T08:04:27.000Z</time>
      </trkpt>
      <trkpt lat="44.24382" lon="0.85302">
        <ele>183.5</ele>
        <time>2024-06-06T08:04:31.000Z</time>
      </trkpt>
      <trkpt lat="44.24381" lon="0.85305">
        <ele>183.4</ele>
        <time>2024-06-06T08:04:35.000Z</time>
      </trkpt>
      <trkpt lat="44.24374" lon="0.85312">
        <ele>182.8</ele>
        <time>2024-06-06T08:04:43.000Z</time>
      </trkpt>
      <trkpt lat="44.2432" lon="0.85355">
        <ele>182.4</ele>
        <time>2024-06-06T08:05:35.000Z</time>
      </trkpt>
      <trkpt lat="44.24316" lon="0.85358">
        <ele>182.5</ele>
        <time>2024-06-06T08:05:39.000Z</time>
      </trkpt>
      <trkpt lat="44.24282" lon="0.85384">
        <ele>184.7</ele>
        <time>2024-06-06T08:06:11.000Z</time>
      </trkpt>
      <trkpt lat="44.24261" lon="0.85399">
        <ele>185.8</ele>
        <time>2024-06-06T08:06:31.000Z</time>
      </trkpt>
      <trkpt lat="44.24248" lon="0.85406">
        <ele>186.8</ele>
        <time>2024-06-06T08:06:43.000Z</time>
      </trkpt>
      <trkpt lat="44.24239" lon="0.85409">
        <ele>187.5</ele>
        <time>2024-06-06T08:06:51.000Z</time>
      </trkpt>
      <trkpt lat="44.24221" lon="0.85414">
        <ele>189</ele>
        <time>2024-06-06T08:07:07.000Z</time>
      </trkpt>
      <trkpt lat="44.24212" lon="0.85418">
        <ele>189.4</ele>
        <time>2024-06-06T08:07:15.000Z</time>
      </trkpt>
      <trkpt lat="44.24203" lon="0.85421">
        <ele>190.1</ele>
        <time>2024-06-06T08:07:23.000Z</time>
      </trkpt>
      <trkpt lat="44.24194" lon="0.85425">
        <ele>190.8</ele>
        <time>2024-06-06T08:07:31.000Z</time>
      </trkpt>
      <trkpt lat="44.24177" lon="0.85435">
        <ele>191.5</ele>
        <time>2024-06-06T08:07:47.000Z</time>
      </trkpt>
      <trkpt lat="44.24168" lon="0.85441">
        <ele>191.8</ele>
        <time>2024-06-06T08:07:55.000Z</time>
      </trkpt>
      <trkpt lat="44.24155" lon="0.85452">
        <ele>192.2</ele>
        <time>2024-06-06T08:08:07.000Z</time>
      </trkpt>
      <trkpt lat="44.24152" lon="0.85457">
        <ele>192.3</ele>
        <time>2024-06-06T08:08:11.000Z</time>
      </trkpt>
      <trkpt lat="44.24143" lon="0.85464">
        <ele>192.6</ele>
        <time>2024-06-06T08:08:19.000Z</time>
      </trkpt>
      <trkpt lat="44.24135" lon="0.8547">
        <ele>192.8</ele>
        <time>2024-06-06T08:08:27.000Z</time>
      </trkpt>
      <trkpt lat="44.24125" lon="0.85473">
        <ele>193.1</ele>
        <time>2024-06-06T08:08:35.000Z</time>
      </trkpt>
      <trkpt lat="44.24124" lon="0.85474">
        <ele>193.2</ele>
        <time>2024-06-06T08:08:37.000Z</time>
      </trkpt>
      <trkpt lat="44.24123" lon="0.85477">
        <ele>193.4</ele>
        <time>2024-06-06T08:08:39.000Z</time>
      </trkpt>
      <trkpt lat="44.24124" lon="0.8548">
        <ele>193.6</ele>
        <time>2024-06-06T08:08:41.000Z</time>
      </trkpt>
      <trkpt lat="44.24125" lon="0.85482">
        <ele>193.9</ele>
        <time>2024-06-06T08:08:43.000Z</time>
      </trkpt>
      <trkpt lat="44.24133" lon="0.85488">
        <ele>194.6</ele>
        <time>2024-06-06T08:08:51.000Z</time>
      </trkpt>
      <trkpt lat="44.24145" lon="0.855">
        <ele>196.2</ele>
        <time>2024-06-06T08:09:07.000Z</time>
      </trkpt>
      <trkpt lat="44.24154" lon="0.85515">
        <ele>197.6</ele>
        <time>2024-06-06T08:09:21.000Z</time>
      </trkpt>
      <trkpt lat="44.24159" lon="0.85528">
        <ele>198.8</ele>
        <time>2024-06-06T08:09:37.000Z</time>
      </trkpt>
      <trkpt lat="44.24163" lon="0.85539">
        <ele>199.3</ele>
        <time>2024-06-06T08:09:45.000Z</time>
      </trkpt>
      <trkpt lat="44.24169" lon="0.85561">
        <ele>199.9</ele>
        <time>2024-06-06T08:10:01.000Z</time>
      </trkpt>
      <trkpt lat="44.24173" lon="0.85572">
        <ele>199.9</ele>
        <time>2024-06-06T08:10:09.000Z</time>
      </trkpt>
      <trkpt lat="44.24175" lon="0.85579">
        <ele>200</ele>
        <time>2024-06-06T08:10:13.000Z</time>
      </trkpt>
      <trkpt lat="44.24176" lon="0.85585">
        <ele>200.1</ele>
        <time>2024-06-06T08:10:17.000Z</time>
      </trkpt>
      <trkpt lat="44.24177" lon="0.8559">
        <ele>200.2</ele>
        <time>2024-06-06T08:10:21.000Z</time>
      </trkpt>
      <trkpt lat="44.24184" lon="0.8561">
        <ele>200.7</ele>
        <time>2024-06-06T08:10:37.000Z</time>
      </trkpt>
      <trkpt lat="44.24188" lon="0.8562">
        <ele>200.8</ele>
        <time>2024-06-06T08:10:45.000Z</time>
      </trkpt>
      <trkpt lat="44.24192" lon="0.85627">
        <ele>200.7</ele>
        <time>2024-06-06T08:10:51.000Z</time>
      </trkpt>
      <trkpt lat="44.24194" lon="0.85635">
        <ele>200.9</ele>
        <time>2024-06-06T08:10:57.000Z</time>
      </trkpt>
      <trkpt lat="44.242" lon="0.85651">
        <ele>200.8</ele>
        <time>2024-06-06T08:11:09.000Z</time>
      </trkpt>
      <trkpt lat="44.24219" lon="0.85692">
        <ele>201.1</ele>
        <time>2024-06-06T08:11:41.000Z</time>
      </trkpt>
      <trkpt lat="44.24224" lon="0.85702">
        <ele>200.8</ele>
        <time>2024-06-06T08:11:49.000Z</time>
      </trkpt>
      <trkpt lat="44.2423" lon="0.85711">
        <ele>200.5</ele>
        <time>2024-06-06T08:11:57.000Z</time>
      </trkpt>
      <trkpt lat="44.24236" lon="0.85719">
        <ele>200.4</ele>
        <time>2024-06-06T08:12:05.000Z</time>
      </trkpt>
      <trkpt lat="44.24243" lon="0.85726">
        <ele>200.4</ele>
        <time>2024-06-06T08:12:13.000Z</time>
      </trkpt>
      <trkpt lat="44.24251" lon="0.85731">
        <ele>200.3</ele>
        <time>2024-06-06T08:12:21.000Z</time>
      </trkpt>
      <trkpt lat="44.24259" lon="0.85736">
        <ele>200.6</ele>
        <time>2024-06-06T08:12:29.000Z</time>
      </trkpt>
      <trkpt lat="44.24263" lon="0.85737">
        <ele>200.8</ele>
        <time>2024-06-06T08:12:33.000Z</time>
      </trkpt>
      <trkpt lat="44.24272" lon="0.8574">
        <ele>201.1</ele>
        <time>2024-06-06T08:12:41.000Z</time>
      </trkpt>
      <trkpt lat="44.24281" lon="0.85742">
        <ele>201.6</ele>
        <time>2024-06-06T08:12:49.000Z</time>
      </trkpt>
      <trkpt lat="44.24289" lon="0.85744">
        <ele>202.1</ele>
        <time>2024-06-06T08:12:57.000Z</time>
      </trkpt>
      <trkpt lat="44.24305" lon="0.85748">
        <ele>202.9</ele>
        <time>2024-06-06T08:13:13.000Z</time>
      </trkpt>
      <trkpt lat="44.24309" lon="0.85749">
        <ele>203</ele>
        <time>2024-06-06T08:13:17.000Z</time>
      </trkpt>
      <trkpt lat="44.24317" lon="0.85751">
        <ele>203</ele>
        <time>2024-06-06T08:13:25.000Z</time>
      </trkpt>
      <trkpt lat="44.24325" lon="0.85755">
        <ele>203.1</ele>
        <time>2024-06-06T08:13:33.000Z</time>
      </trkpt>
      <trkpt lat="44.2433" lon="0.85758">
        <ele>203</ele>
        <time>2024-06-06T08:13:37.000Z</time>
      </trkpt>
      <trkpt lat="44.24337" lon="0.85765">
        <ele>202.6</ele>
        <time>2024-06-06T08:13:45.000Z</time>
      </trkpt>
      <trkpt lat="44.24341" lon="0.85769">
        <ele>202.2</ele>
        <time>2024-06-06T08:13:49.000Z</time>
      </trkpt>
      <trkpt lat="44.24347" lon="0.85777">
        <ele>201.5</ele>
        <time>2024-06-06T08:13:57.000Z</time>
      </trkpt>
      <trkpt lat="44.2435" lon="0.85782">
        <ele>201.2</ele>
        <time>2024-06-06T08:14:01.000Z</time>
      </trkpt>
      <trkpt lat="44.24361" lon="0.85803">
        <ele>200</ele>
        <time>2024-06-06T08:14:17.000Z</time>
      </trkpt>
      <trkpt lat="44.24376" lon="0.85835">
        <ele>199.5</ele>
        <time>2024-06-06T08:14:41.000Z</time>
      </trkpt>
      <trkpt lat="44.24381" lon="0.85845">
        <ele>199.2</ele>
        <time>2024-06-06T08:14:49.000Z</time>
      </trkpt>
      <trkpt lat="44.24389" lon="0.85859">
        <ele>198.9</ele>
        <time>2024-06-06T08:15:01.000Z</time>
      </trkpt>
      <trkpt lat="44.24398" lon="0.85871">
        <ele>198.8</ele>
        <time>2024-06-06T08:15:13.000Z</time>
      </trkpt>
      <trkpt lat="44.24405" lon="0.85878">
        <ele>198.8</ele>
        <time>2024-06-06T08:15:21.000Z</time>
      </trkpt>
      <trkpt lat="44.24412" lon="0.85884">
        <ele>198.9</ele>
        <time>2024-06-06T08:15:29.000Z</time>
      </trkpt>
      <trkpt lat="44.2442" lon="0.85889">
        <ele>199</ele>
        <time>2024-06-06T08:15:37.000Z</time>
      </trkpt>
      <trkpt lat="44.24424" lon="0.85892">
        <ele>199.2</ele>
        <time>2024-06-06T08:15:41.000Z</time>
      </trkpt>
      <trkpt lat="44.24433" lon="0.85896">
        <ele>199.4</ele>
        <time>2024-06-06T08:15:49.000Z</time>
      </trkpt>
      <trkpt lat="44.24441" lon="0.85899">
        <ele>199.7</ele>
        <time>2024-06-06T08:15:57.000Z</time>
      </trkpt>
      <trkpt lat="44.24462" lon="0.85904">
        <ele>200.7</ele>
        <time>2024-06-06T08:16:17.000Z</time>
      </trkpt>
      <trkpt lat="44.24466" lon="0.85905">
        <ele>200.9</ele>
        <time>2024-06-06T08:16:21.000Z</time>
      </trkpt>
      <trkpt lat="44.24471" lon="0.85906">
        <ele>201.1</ele>
        <time>2024-06-06T08:16:25.000Z</time>
      </trkpt>
      <trkpt lat="44.24479" lon="0.85908">
        <ele>201.6</ele>
        <time>2024-06-06T08:16:33.000Z</time>
      </trkpt>
      <trkpt lat="44.24502" lon="0.85913">
        <ele>202.8</ele>
        <time>2024-06-06T08:16:57.000Z</time>
      </trkpt>
      <trkpt lat="44.24534" lon="0.85926">
        <ele>203.7</ele>
        <time>2024-06-06T08:17:29.000Z</time>
      </trkpt>
      <trkpt lat="44.24542" lon="0.85931">
        <ele>203.5</ele>
        <time>2024-06-06T08:17:37.000Z</time>
      </trkpt>
      <trkpt lat="44.24558" lon="0.85943">
        <ele>203.6</ele>
        <time>2024-06-06T08:17:53.000Z</time>
      </trkpt>
      <trkpt lat="44.24563" lon="0.85948">
        <ele>203.4</ele>
        <time>2024-06-06T08:17:59.000Z</time>
      </trkpt>
      <trkpt lat="44.24571" lon="0.85953">
        <ele>203</ele>
        <time>2024-06-06T08:18:07.000Z</time>
      </trkpt>
      <trkpt lat="44.24575" lon="0.85957">
        <ele>203</ele>
        <time>2024-06-06T08:18:11.000Z</time>
      </trkpt>
      <trkpt lat="44.24588" lon="0.85967">
        <ele>203.3</ele>
        <time>2024-06-06T08:18:25.000Z</time>
      </trkpt>
      <trkpt lat="44.24593" lon="0.85971">
        <ele>203.6</ele>
        <time>2024-06-06T08:18:31.000Z</time>
      </trkpt>
      <trkpt lat="44.24605" lon="0.85977">
        <ele>203.5</ele>
        <time>2024-06-06T08:18:43.000Z</time>
      </trkpt>
      <trkpt lat="44.24613" lon="0.85981">
        <ele>203.6</ele>
        <time>2024-06-06T08:18:51.000Z</time>
      </trkpt>
      <trkpt lat="44.24637" lon="0.85995">
        <ele>204.7</ele>
        <time>2024-06-06T08:19:15.000Z</time>
      </trkpt>
      <trkpt lat="44.24644" lon="0.86001">
        <ele>204.8</ele>
        <time>2024-06-06T08:19:23.000Z</time>
      </trkpt>
      <trkpt lat="44.24654" lon="0.86012">
        <ele>205.1</ele>
        <time>2024-06-06T08:19:35.000Z</time>
      </trkpt>
      <trkpt lat="44.24656" lon="0.86016">
        <ele>205.3</ele>
        <time>2024-06-06T08:19:39.000Z</time>
      </trkpt>
      <trkpt lat="44.24658" lon="0.86021">
        <ele>205.6</ele>
        <time>2024-06-06T08:19:43.000Z</time>
      </trkpt>
      <trkpt lat="44.24664" lon="0.86031">
        <ele>206</ele>
        <time>2024-06-06T08:19:51.000Z</time>
      </trkpt>
      <trkpt lat="44.24717" lon="0.86106">
        <ele>207.8</ele>
        <time>2024-06-06T08:20:59.000Z</time>
      </trkpt>
      <trkpt lat="44.2472" lon="0.86112">
        <ele>208</ele>
        <time>2024-06-06T08:21:05.000Z</time>
      </trkpt>
      <trkpt lat="44.24727" lon="0.86121">
        <ele>208.2</ele>
        <time>2024-06-06T08:21:13.000Z</time>
      </trkpt>
      <trkpt lat="44.24739" lon="0.86139">
        <ele>208.4</ele>
        <time>2024-06-06T08:21:29.000Z</time>
      </trkpt>
      <trkpt lat="44.24748" lon="0.86154">
        <ele>208.6</ele>
        <time>2024-06-06T08:21:41.000Z</time>
      </trkpt>
      <trkpt lat="44.24753" lon="0.86163">
        <ele>209</ele>
        <time>2024-06-06T08:21:49.000Z</time>
      </trkpt>
      <trkpt lat="44.24755" lon="0.86169">
        <ele>209.3</ele>
        <time>2024-06-06T08:21:57.000Z</time>
      </trkpt>
      <trkpt lat="44.24761" lon="0.86177">
        <ele>210</ele>
        <time>2024-06-06T08:22:09.000Z</time>
      </trkpt>
      <trkpt lat="44.24764" lon="0.86179">
        <ele>210.2</ele>
        <time>2024-06-06T08:22:57.000Z</time>
      </trkpt>
      <trkpt lat="44.24774" lon="0.86195">
        <ele>211</ele>
        <time>2024-06-06T08:25:05.000Z</time>
      </trkpt>
      <trkpt lat="44.24794" lon="0.8622">
        <ele>212.1</ele>
        <time>2024-06-06T08:25:31.000Z</time>
      </trkpt>
      <trkpt lat="44.24794" lon="0.8622">
        <ele>212.1</ele>
        <time>2024-06-06T08:25:32.000Z</time>
      </trkpt>
      <trkpt lat="44.24795" lon="0.86223">
        <ele>212.3</ele>
        <time>2024-06-06T08:25:36.000Z</time>
      </trkpt>
      <trkpt lat="44.24797" lon="0.86226">
        <ele>212.4</ele>
        <time>2024-06-06T08:25:38.000Z</time>
      </trkpt>
      <trkpt lat="44.2481" lon="0.8624">
        <ele>213.2</ele>
        <time>2024-06-06T08:25:54.000Z</time>
      </trkpt>
      <trkpt lat="44.24824" lon="0.86255">
        <ele>214.6</ele>
        <time>2024-06-06T08:26:10.000Z</time>
      </trkpt>
      <trkpt lat="44.24839" lon="0.8627">
        <ele>215.9</ele>
        <time>2024-06-06T08:26:26.000Z</time>
      </trkpt>
      <trkpt lat="44.24857" lon="0.86286">
        <ele>216.9</ele>
        <time>2024-06-06T08:26:46.000Z</time>
      </trkpt>
      <trkpt lat="44.24872" lon="0.86303">
        <ele>217.4</ele>
        <time>2024-06-06T08:27:06.000Z</time>
      </trkpt>
      <trkpt lat="44.24876" lon="0.86307">
        <ele>217.5</ele>
        <time>2024-06-06T08:27:12.000Z</time>
      </trkpt>
      <trkpt lat="44.24883" lon="0.86314">
        <ele>217.5</ele>
        <time>2024-06-06T08:27:20.000Z</time>
      </trkpt>
      <trkpt lat="44.24884" lon="0.86316">
        <ele>217.5</ele>
        <time>2024-06-06T08:27:22.000Z</time>
      </trkpt>
      <trkpt lat="44.24918" lon="0.86349">
        <ele>217</ele>
        <time>2024-06-06T08:27:58.000Z</time>
      </trkpt>
      <trkpt lat="44.24921" lon="0.86354">
        <ele>216.9</ele>
        <time>2024-06-06T08:28:02.000Z</time>
      </trkpt>
      <trkpt lat="44.24925" lon="0.86358">
        <ele>216.7</ele>
        <time>2024-06-06T08:28:06.000Z</time>
      </trkpt>
      <trkpt lat="44.24943" lon="0.86374">
        <ele>216</ele>
        <time>2024-06-06T08:28:24.000Z</time>
      </trkpt>
      <trkpt lat="44.24946" lon="0.86378">
        <ele>216</ele>
        <time>2024-06-06T08:28:28.000Z</time>
      </trkpt>
      <trkpt lat="44.24955" lon="0.86384">
        <ele>215.7</ele>
        <time>2024-06-06T08:28:36.000Z</time>
      </trkpt>
      <trkpt lat="44.24957" lon="0.86385">
        <ele>215.6</ele>
        <time>2024-06-06T08:28:38.000Z</time>
      </trkpt>
      <trkpt lat="44.24961" lon="0.86389">
        <ele>215.4</ele>
        <time>2024-06-06T08:28:42.000Z</time>
      </trkpt>
      <trkpt lat="44.24969" lon="0.86396">
        <ele>215.4</ele>
        <time>2024-06-06T08:28:50.000Z</time>
      </trkpt>
      <trkpt lat="44.24977" lon="0.86404">
        <ele>215.5</ele>
        <time>2024-06-06T08:28:58.000Z</time>
      </trkpt>
      <trkpt lat="44.24982" lon="0.8641">
        <ele>215.5</ele>
        <time>2024-06-06T08:29:04.000Z</time>
      </trkpt>
      <trkpt lat="44.24998" lon="0.86425">
        <ele>215</ele>
        <time>2024-06-06T08:29:20.000Z</time>
      </trkpt>
      <trkpt lat="44.25006" lon="0.86433">
        <ele>214.7</ele>
        <time>2024-06-06T08:29:28.000Z</time>
      </trkpt>
      <trkpt lat="44.25014" lon="0.86441">
        <ele>214.4</ele>
        <time>2024-06-06T08:29:36.000Z</time>
      </trkpt>
      <trkpt lat="44.25018" lon="0.86444">
        <ele>214.3</ele>
        <time>2024-06-06T08:29:40.000Z</time>
      </trkpt>
      <trkpt lat="44.25022" lon="0.86446">
        <ele>214.3</ele>
        <time>2024-06-06T08:29:44.000Z</time>
      </trkpt>
      <trkpt lat="44.25024" lon="0.86448">
        <ele>214.2</ele>
        <time>2024-06-06T08:29:46.000Z</time>
      </trkpt>
      <trkpt lat="44.25033" lon="0.86463">
        <ele>214.7</ele>
        <time>2024-06-06T08:29:58.000Z</time>
      </trkpt>
      <trkpt lat="44.2504" lon="0.86472">
        <ele>215</ele>
        <time>2024-06-06T08:30:06.000Z</time>
      </trkpt>
      <trkpt lat="44.25043" lon="0.86477">
        <ele>215</ele>
        <time>2024-06-06T08:30:10.000Z</time>
      </trkpt>
      <trkpt lat="44.25046" lon="0.86481">
        <ele>215</ele>
        <time>2024-06-06T08:30:14.000Z</time>
      </trkpt>
      <trkpt lat="44.25058" lon="0.86493">
        <ele>215</ele>
        <time>2024-06-06T08:30:26.000Z</time>
      </trkpt>
      <trkpt lat="44.25061" lon="0.86497">
        <ele>215</ele>
        <time>2024-06-06T08:30:30.000Z</time>
      </trkpt>
      <trkpt lat="44.25065" lon="0.86501">
        <ele>215</ele>
        <time>2024-06-06T08:30:34.000Z</time>
      </trkpt>
      <trkpt lat="44.25079" lon="0.86514">
        <ele>215.5</ele>
        <time>2024-06-06T08:30:50.000Z</time>
      </trkpt>
      <trkpt lat="44.25099" lon="0.86529">
        <ele>215.5</ele>
        <time>2024-06-06T08:31:10.000Z</time>
      </trkpt>
      <trkpt lat="44.25102" lon="0.86532">
        <ele>215.5</ele>
        <time>2024-06-06T08:31:14.000Z</time>
      </trkpt>
      <trkpt lat="44.25118" lon="0.86544">
        <ele>215.6</ele>
        <time>2024-06-06T08:31:30.000Z</time>
      </trkpt>
      <trkpt lat="44.25131" lon="0.86554">
        <ele>215.9</ele>
        <time>2024-06-06T08:31:42.000Z</time>
      </trkpt>
      <trkpt lat="44.25144" lon="0.86563">
        <ele>216.2</ele>
        <time>2024-06-06T08:31:54.000Z</time>
      </trkpt>
      <trkpt lat="44.25148" lon="0.86564">
        <ele>216.2</ele>
        <time>2024-06-06T08:31:58.000Z</time>
      </trkpt>
      <trkpt lat="44.2515" lon="0.86564">
        <ele>216.2</ele>
        <time>2024-06-06T08:32:00.000Z</time>
      </trkpt>
      <trkpt lat="44.25152" lon="0.86565">
        <ele>216.2</ele>
        <time>2024-06-06T08:32:02.000Z</time>
      </trkpt>
      <trkpt lat="44.25154" lon="0.86568">
        <ele>216.2</ele>
        <time>2024-06-06T08:32:05.000Z</time>
      </trkpt>
      <trkpt lat="44.25155" lon="0.86569">
        <ele>216.2</ele>
        <time>2024-06-06T08:32:06.000Z</time>
      </trkpt>
      <trkpt lat="44.25156" lon="0.86569">
        <ele>216.2</ele>
        <time>2024-06-06T08:32:07.000Z</time>
      </trkpt>
      <trkpt lat="44.25162" lon="0.86568">
        <ele>216.1</ele>
        <time>2024-06-06T08:32:15.000Z</time>
      </trkpt>
      <trkpt lat="44.25164" lon="0.86566">
        <ele>216</ele>
        <time>2024-06-06T08:32:17.000Z</time>
      </trkpt>
      <trkpt lat="44.25178" lon="0.86552">
        <ele>216.4</ele>
        <time>2024-06-06T08:32:33.000Z</time>
      </trkpt>
      <trkpt lat="44.25194" lon="0.86539">
        <ele>216.4</ele>
        <time>2024-06-06T08:32:49.000Z</time>
      </trkpt>
      <trkpt lat="44.25201" lon="0.86533">
        <ele>216.1</ele>
        <time>2024-06-06T08:32:57.000Z</time>
      </trkpt>
      <trkpt lat="44.25211" lon="0.86524">
        <ele>215.9</ele>
        <time>2024-06-06T08:33:09.000Z</time>
      </trkpt>
      <trkpt lat="44.2522" lon="0.86515">
        <ele>216</ele>
        <time>2024-06-06T08:33:17.000Z</time>
      </trkpt>
      <trkpt lat="44.25227" lon="0.86507">
        <ele>216</ele>
        <time>2024-06-06T08:33:25.000Z</time>
      </trkpt>
      <trkpt lat="44.25242" lon="0.86491">
        <ele>215.8</ele>
        <time>2024-06-06T08:33:41.000Z</time>
      </trkpt>
      <trkpt lat="44.25254" lon="0.86475">
        <ele>215.8</ele>
        <time>2024-06-06T08:33:57.000Z</time>
      </trkpt>
      <trkpt lat="44.25261" lon="0.86466">
        <ele>215.3</ele>
        <time>2024-06-06T08:34:05.000Z</time>
      </trkpt>
      <trkpt lat="44.25275" lon="0.86449">
        <ele>214.9</ele>
        <time>2024-06-06T08:34:21.000Z</time>
      </trkpt>
      <trkpt lat="44.25291" lon="0.86425">
        <ele>213.7</ele>
        <time>2024-06-06T08:34:41.000Z</time>
      </trkpt>
      <trkpt lat="44.25294" lon="0.86421">
        <ele>213.5</ele>
        <time>2024-06-06T08:34:45.000Z</time>
      </trkpt>
      <trkpt lat="44.25303" lon="0.86408">
        <ele>213.4</ele>
        <time>2024-06-06T08:34:57.000Z</time>
      </trkpt>
      <trkpt lat="44.25305" lon="0.86403">
        <ele>213.5</ele>
        <time>2024-06-06T08:35:01.000Z</time>
      </trkpt>
      <trkpt lat="44.25309" lon="0.86391">
        <ele>213.5</ele>
        <time>2024-06-06T08:35:09.000Z</time>
      </trkpt>
      <trkpt lat="44.25311" lon="0.86386">
        <ele>213.2</ele>
        <time>2024-06-06T08:35:13.000Z</time>
      </trkpt>
      <trkpt lat="44.25314" lon="0.86381">
        <ele>212.8</ele>
        <time>2024-06-06T08:35:17.000Z</time>
      </trkpt>
      <trkpt lat="44.25319" lon="0.86372">
        <ele>212.1</ele>
        <time>2024-06-06T08:35:25.000Z</time>
      </trkpt>
      <trkpt lat="44.25324" lon="0.86361">
        <ele>211.4</ele>
        <time>2024-06-06T08:35:33.000Z</time>
      </trkpt>
      <trkpt lat="44.25333" lon="0.86345">
        <ele>211.2</ele>
        <time>2024-06-06T08:35:45.000Z</time>
      </trkpt>
      <trkpt lat="44.25336" lon="0.8634">
        <ele>211.1</ele>
        <time>2024-06-06T08:35:49.000Z</time>
      </trkpt>
      <trkpt lat="44.2534" lon="0.86332">
        <ele>210.8</ele>
        <time>2024-06-06T08:35:55.000Z</time>
      </trkpt>
      <trkpt lat="44.25342" lon="0.86327">
        <ele>210.5</ele>
        <time>2024-06-06T08:35:57.000Z</time>
      </trkpt>
      <trkpt lat="44.25348" lon="0.86313">
        <ele>209.8</ele>
        <time>2024-06-06T08:36:05.000Z</time>
      </trkpt>
      <trkpt lat="44.25354" lon="0.86302">
        <ele>209.6</ele>
        <time>2024-06-06T08:36:13.000Z</time>
      </trkpt>
      <trkpt lat="44.25366" lon="0.86281">
        <ele>209.2</ele>
        <time>2024-06-06T08:36:29.000Z</time>
      </trkpt>
      <trkpt lat="44.25379" lon="0.86261">
        <ele>208</ele>
        <time>2024-06-06T08:36:45.000Z</time>
      </trkpt>
      <trkpt lat="44.25397" lon="0.86229">
        <ele>207.1</ele>
        <time>2024-06-06T08:37:13.000Z</time>
      </trkpt>
      <trkpt lat="44.25399" lon="0.86225">
        <ele>206.9</ele>
        <time>2024-06-06T08:37:25.000Z</time>
      </trkpt>
      <trkpt lat="44.25399" lon="0.86225">
        <ele>206.9</ele>
        <time>2024-06-06T08:37:41.000Z</time>
      </trkpt>
      <trkpt lat="44.25399" lon="0.86226">
        <ele>206.9</ele>
        <time>2024-06-06T08:38:05.000Z</time>
      </trkpt>
      <trkpt lat="44.25398" lon="0.86227">
        <ele>206.9</ele>
        <time>2024-06-06T08:38:45.000Z</time>
      </trkpt>
      <trkpt lat="44.25398" lon="0.86227">
        <ele>207</ele>
        <time>2024-06-06T08:39:01.000Z</time>
      </trkpt>
      <trkpt lat="44.25402" lon="0.86217">
        <ele>206.5</ele>
        <time>2024-06-06T08:39:17.000Z</time>
      </trkpt>
      <trkpt lat="44.25405" lon="0.86212">
        <ele>206.1</ele>
        <time>2024-06-06T08:39:33.000Z</time>
      </trkpt>
      <trkpt lat="44.25413" lon="0.86195">
        <ele>206</ele>
        <time>2024-06-06T08:39:49.000Z</time>
      </trkpt>
      <trkpt lat="44.25416" lon="0.8619">
        <ele>205.8</ele>
        <time>2024-06-06T08:39:53.000Z</time>
      </trkpt>
      <trkpt lat="44.25423" lon="0.86176">
        <ele>204.7</ele>
        <time>2024-06-06T08:40:05.000Z</time>
      </trkpt>
      <trkpt lat="44.2543" lon="0.86165">
        <ele>204</ele>
        <time>2024-06-06T08:40:15.000Z</time>
      </trkpt>
      <trkpt lat="44.25435" lon="0.86153">
        <ele>203.8</ele>
        <time>2024-06-06T08:40:23.000Z</time>
      </trkpt>
      <trkpt lat="44.25441" lon="0.86143">
        <ele>203.9</ele>
        <time>2024-06-06T08:40:31.000Z</time>
      </trkpt>
      <trkpt lat="44.25462" lon="0.86102">
        <ele>202.1</ele>
        <time>2024-06-06T08:41:03.000Z</time>
      </trkpt>
      <trkpt lat="44.25467" lon="0.86092">
        <ele>202.5</ele>
        <time>2024-06-06T08:41:11.000Z</time>
      </trkpt>
      <trkpt lat="44.25469" lon="0.86086">
        <ele>202.9</ele>
        <time>2024-06-06T08:41:15.000Z</time>
      </trkpt>
      <trkpt lat="44.25478" lon="0.86067">
        <ele>201.6</ele>
        <time>2024-06-06T08:41:31.000Z</time>
      </trkpt>
      <trkpt lat="44.25487" lon="0.86048">
        <ele>200.9</ele>
        <time>2024-06-06T08:41:51.000Z</time>
      </trkpt>
      <trkpt lat="44.25487" lon="0.86047">
        <ele>201</ele>
        <time>2024-06-06T08:41:53.000Z</time>
      </trkpt>
      <trkpt lat="44.2549" lon="0.86042">
        <ele>201</ele>
        <time>2024-06-06T08:42:01.000Z</time>
      </trkpt>
      <trkpt lat="44.25492" lon="0.86037">
        <ele>201.3</ele>
        <time>2024-06-06T08:43:09.000Z</time>
      </trkpt>
      <trkpt lat="44.25511" lon="0.86003">
        <ele>200.8</ele>
        <time>2024-06-06T08:43:41.000Z</time>
      </trkpt>
      <trkpt lat="44.25516" lon="0.85994">
        <ele>200.5</ele>
        <time>2024-06-06T08:43:49.000Z</time>
      </trkpt>
      <trkpt lat="44.25524" lon="0.85981">
        <ele>200.3</ele>
        <time>2024-06-06T08:44:01.000Z</time>
      </trkpt>
      <trkpt lat="44.25527" lon="0.85974">
        <ele>200.9</ele>
        <time>2024-06-06T08:44:07.000Z</time>
      </trkpt>
      <trkpt lat="44.25531" lon="0.85964">
        <ele>200.5</ele>
        <time>2024-06-06T08:44:15.000Z</time>
      </trkpt>
      <trkpt lat="44.25535" lon="0.85955">
        <ele>200.2</ele>
        <time>2024-06-06T08:44:23.000Z</time>
      </trkpt>
      <trkpt lat="44.25538" lon="0.85951">
        <ele>200.2</ele>
        <time>2024-06-06T08:44:27.000Z</time>
      </trkpt>
      <trkpt lat="44.25545" lon="0.85933">
        <ele>200.6</ele>
        <time>2024-06-06T08:44:39.000Z</time>
      </trkpt>
      <trkpt lat="44.25551" lon="0.85922">
        <ele>201.2</ele>
        <time>2024-06-06T08:44:47.000Z</time>
      </trkpt>
      <trkpt lat="44.25558" lon="0.85913">
        <ele>201.6</ele>
        <time>2024-06-06T08:44:55.000Z</time>
      </trkpt>
      <trkpt lat="44.2558" lon="0.85885">
        <ele>201.1</ele>
        <time>2024-06-06T08:45:19.000Z</time>
      </trkpt>
      <trkpt lat="44.25595" lon="0.85865">
        <ele>201.3</ele>
        <time>2024-06-06T08:45:35.000Z</time>
      </trkpt>
      <trkpt lat="44.25614" lon="0.85844">
        <ele>201.5</ele>
        <time>2024-06-06T08:45:59.000Z</time>
      </trkpt>
      <trkpt lat="44.2562" lon="0.85835">
        <ele>201.6</ele>
        <time>2024-06-06T08:46:07.000Z</time>
      </trkpt>
      <trkpt lat="44.25623" lon="0.85831">
        <ele>201.6</ele>
        <time>2024-06-06T08:46:11.000Z</time>
      </trkpt>
      <trkpt lat="44.2563" lon="0.85822">
        <ele>201.6</ele>
        <time>2024-06-06T08:46:19.000Z</time>
      </trkpt>
      <trkpt lat="44.25642" lon="0.85809">
        <ele>201.7</ele>
        <time>2024-06-06T08:46:31.000Z</time>
      </trkpt>
      <trkpt lat="44.25645" lon="0.85807">
        <ele>201.5</ele>
        <time>2024-06-06T08:46:35.000Z</time>
      </trkpt>
      <trkpt lat="44.25653" lon="0.85802">
        <ele>201.3</ele>
        <time>2024-06-06T08:46:43.000Z</time>
      </trkpt>
      <trkpt lat="44.25657" lon="0.85799">
        <ele>201.2</ele>
        <time>2024-06-06T08:46:47.000Z</time>
      </trkpt>
      <trkpt lat="44.25661" lon="0.85798">
        <ele>201.1</ele>
        <time>2024-06-06T08:46:51.000Z</time>
      </trkpt>
      <trkpt lat="44.25665" lon="0.85796">
        <ele>201.1</ele>
        <time>2024-06-06T08:46:55.000Z</time>
      </trkpt>
      <trkpt lat="44.25674" lon="0.85796">
        <ele>200.6</ele>
        <time>2024-06-06T08:47:03.000Z</time>
      </trkpt>
      <trkpt lat="44.25685" lon="0.85797">
        <ele>199.6</ele>
        <time>2024-06-06T08:47:15.000Z</time>
      </trkpt>
      <trkpt lat="44.25687" lon="0.85797">
        <ele>199.4</ele>
        <time>2024-06-06T08:47:19.000Z</time>
      </trkpt>
      <trkpt lat="44.25689" lon="0.85797">
        <ele>199.3</ele>
        <time>2024-06-06T08:47:29.000Z</time>
      </trkpt>
      <trkpt lat="44.25691" lon="0.85794">
        <ele>199.5</ele>
        <time>2024-06-06T08:47:33.000Z</time>
      </trkpt>
      <trkpt lat="44.25692" lon="0.85791">
        <ele>199.8</ele>
        <time>2024-06-06T08:47:37.000Z</time>
      </trkpt>
      <trkpt lat="44.25692" lon="0.85786">
        <ele>200.3</ele>
        <time>2024-06-06T08:47:43.000Z</time>
      </trkpt>
      <trkpt lat="44.25691" lon="0.85782">
        <ele>200.8</ele>
        <time>2024-06-06T08:47:47.000Z</time>
      </trkpt>
      <trkpt lat="44.25689" lon="0.85769">
        <ele>201.9</ele>
        <time>2024-06-06T08:47:57.000Z</time>
      </trkpt>
      <trkpt lat="44.25685" lon="0.8576">
        <ele>202.5</ele>
        <time>2024-06-06T08:48:05.000Z</time>
      </trkpt>
      <trkpt lat="44.25684" lon="0.85757">
        <ele>202.7</ele>
        <time>2024-06-06T08:48:09.000Z</time>
      </trkpt>
      <trkpt lat="44.25683" lon="0.85753">
        <ele>202.9</ele>
        <time>2024-06-06T08:48:13.000Z</time>
      </trkpt>
      <trkpt lat="44.25679" lon="0.85745">
        <ele>203.1</ele>
        <time>2024-06-06T08:48:21.000Z</time>
      </trkpt>
      <trkpt lat="44.25678" lon="0.8574">
        <ele>203.2</ele>
        <time>2024-06-06T08:48:25.000Z</time>
      </trkpt>
      <trkpt lat="44.25678" lon="0.85737">
        <ele>203.2</ele>
        <time>2024-06-06T08:48:27.000Z</time>
      </trkpt>
      <trkpt lat="44.25679" lon="0.85733">
        <ele>203.3</ele>
        <time>2024-06-06T08:48:30.000Z</time>
      </trkpt>
      <trkpt lat="44.25681" lon="0.85731">
        <ele>203.3</ele>
        <time>2024-06-06T08:48:32.000Z</time>
      </trkpt>
      <trkpt lat="44.25683" lon="0.85726">
        <ele>203.5</ele>
        <time>2024-06-06T08:48:36.000Z</time>
      </trkpt>
      <trkpt lat="44.25685" lon="0.85721">
        <ele>203.6</ele>
        <time>2024-06-06T08:48:40.000Z</time>
      </trkpt>
      <trkpt lat="44.25686" lon="0.85716">
        <ele>203.4</ele>
        <time>2024-06-06T08:48:44.000Z</time>
      </trkpt>
      <trkpt lat="44.25689" lon="0.85711">
        <ele>203.3</ele>
        <time>2024-06-06T08:48:48.000Z</time>
      </trkpt>
      <trkpt lat="44.25693" lon="0.85705">
        <ele>203.3</ele>
        <time>2024-06-06T08:48:56.000Z</time>
      </trkpt>
      <trkpt lat="44.25698" lon="0.85697">
        <ele>203.2</ele>
        <time>2024-06-06T08:49:06.000Z</time>
      </trkpt>
      <trkpt lat="44.25701" lon="0.85688">
        <ele>202.8</ele>
        <time>2024-06-06T08:49:14.000Z</time>
      </trkpt>
      <trkpt lat="44.25703" lon="0.85683">
        <ele>202.6</ele>
        <time>2024-06-06T08:49:18.000Z</time>
      </trkpt>
      <trkpt lat="44.25717" lon="0.85662">
        <ele>202.3</ele>
        <time>2024-06-06T08:49:36.000Z</time>
      </trkpt>
      <trkpt lat="44.25719" lon="0.85656">
        <ele>202</ele>
        <time>2024-06-06T08:49:40.000Z</time>
      </trkpt>
      <trkpt lat="44.25719" lon="0.8565">
        <ele>201.6</ele>
        <time>2024-06-06T08:49:44.000Z</time>
      </trkpt>
      <trkpt lat="44.25719" lon="0.85647">
        <ele>201.4</ele>
        <time>2024-06-06T08:49:46.000Z</time>
      </trkpt>
      <trkpt lat="44.25711" lon="0.85632">
        <ele>200</ele>
        <time>2024-06-06T08:50:00.000Z</time>
      </trkpt>
      <trkpt lat="44.25711" lon="0.85629">
        <ele>199.7</ele>
        <time>2024-06-06T08:50:02.000Z</time>
      </trkpt>
      <trkpt lat="44.257" lon="0.8561">
        <ele>197.2</ele>
        <time>2024-06-06T08:50:18.000Z</time>
      </trkpt>
      <trkpt lat="44.25694" lon="0.856">
        <ele>195.7</ele>
        <time>2024-06-06T08:50:26.000Z</time>
      </trkpt>
      <trkpt lat="44.25686" lon="0.8559">
        <ele>193.6</ele>
        <time>2024-06-06T08:50:38.000Z</time>
      </trkpt>
      <trkpt lat="44.25684" lon="0.85585">
        <ele>192.8</ele>
        <time>2024-06-06T08:50:44.000Z</time>
      </trkpt>
      <trkpt lat="44.25684" lon="0.85584">
        <ele>192.5</ele>
        <time>2024-06-06T08:50:46.000Z</time>
      </trkpt>
      <trkpt lat="44.25687" lon="0.85573">
        <ele>191.3</ele>
        <time>2024-06-06T08:50:56.000Z</time>
      </trkpt>
      <trkpt lat="44.25688" lon="0.85571">
        <ele>191.1</ele>
        <time>2024-06-06T08:50:58.000Z</time>
      </trkpt>
      <trkpt lat="44.25693" lon="0.85566">
        <ele>191.2</ele>
        <time>2024-06-06T08:51:04.000Z</time>
      </trkpt>
      <trkpt lat="44.25699" lon="0.85557">
        <ele>190.9</ele>
        <time>2024-06-06T08:51:12.000Z</time>
      </trkpt>
      <trkpt lat="44.25702" lon="0.85553">
        <ele>190.8</ele>
        <time>2024-06-06T08:51:16.000Z</time>
      </trkpt>
      <trkpt lat="44.25706" lon="0.85546">
        <ele>190.5</ele>
        <time>2024-06-06T08:51:24.000Z</time>
      </trkpt>
      <trkpt lat="44.25711" lon="0.85541">
        <ele>190.5</ele>
        <time>2024-06-06T08:51:28.000Z</time>
      </trkpt>
      <trkpt lat="44.25712" lon="0.85538">
        <ele>190.4</ele>
        <time>2024-06-06T08:51:30.000Z</time>
      </trkpt>
      <trkpt lat="44.25714" lon="0.85534">
        <ele>190.2</ele>
        <time>2024-06-06T08:51:32.000Z</time>
      </trkpt>
      <trkpt lat="44.25719" lon="0.85525">
        <ele>189.7</ele>
        <time>2024-06-06T08:51:40.000Z</time>
      </trkpt>
      <trkpt lat="44.25724" lon="0.85517">
        <ele>189.1</ele>
        <time>2024-06-06T08:51:48.000Z</time>
      </trkpt>
      <trkpt lat="44.25728" lon="0.85513">
        <ele>189.2</ele>
        <time>2024-06-06T08:51:52.000Z</time>
      </trkpt>
      <trkpt lat="44.25729" lon="0.8551">
        <ele>189</ele>
        <time>2024-06-06T08:51:54.000Z</time>
      </trkpt>
      <trkpt lat="44.25733" lon="0.85505">
        <ele>189.1</ele>
        <time>2024-06-06T08:51:58.000Z</time>
      </trkpt>
      <trkpt lat="44.25734" lon="0.85502">
        <ele>189</ele>
        <time>2024-06-06T08:52:00.000Z</time>
      </trkpt>
      <trkpt lat="44.25737" lon="0.85498">
        <ele>189.4</ele>
        <time>2024-06-06T08:52:04.000Z</time>
      </trkpt>
      <trkpt lat="44.25746" lon="0.85483">
        <ele>189.4</ele>
        <time>2024-06-06T08:52:16.000Z</time>
      </trkpt>
      <trkpt lat="44.25748" lon="0.85481">
        <ele>189.2</ele>
        <time>2024-06-06T08:52:18.000Z</time>
      </trkpt>
      <trkpt lat="44.25754" lon="0.85472">
        <ele>189.2</ele>
        <time>2024-06-06T08:52:26.000Z</time>
      </trkpt>
      <trkpt lat="44.25757" lon="0.85469">
        <ele>189.7</ele>
        <time>2024-06-06T08:52:30.000Z</time>
      </trkpt>
      <trkpt lat="44.25763" lon="0.85461">
        <ele>190.1</ele>
        <time>2024-06-06T08:52:38.000Z</time>
      </trkpt>
      <trkpt lat="44.25764" lon="0.85458">
        <ele>190.1</ele>
        <time>2024-06-06T08:52:40.000Z</time>
      </trkpt>
      <trkpt lat="44.25772" lon="0.85449">
        <ele>191.2</ele>
        <time>2024-06-06T08:52:48.000Z</time>
      </trkpt>
      <trkpt lat="44.25777" lon="0.85437">
        <ele>191</ele>
        <time>2024-06-06T08:52:56.000Z</time>
      </trkpt>
      <trkpt lat="44.25782" lon="0.85426">
        <ele>190</ele>
        <time>2024-06-06T08:53:04.000Z</time>
      </trkpt>
      <trkpt lat="44.25789" lon="0.85417">
        <ele>190.1</ele>
        <time>2024-06-06T08:53:12.000Z</time>
      </trkpt>
      <trkpt lat="44.25793" lon="0.85408">
        <ele>190.4</ele>
        <time>2024-06-06T08:53:18.000Z</time>
      </trkpt>
      <trkpt lat="44.25799" lon="0.85402">
        <ele>191.6</ele>
        <time>2024-06-06T08:53:24.000Z</time>
      </trkpt>
      <trkpt lat="44.25802" lon="0.85398">
        <ele>192.3</ele>
        <time>2024-06-06T08:53:28.000Z</time>
      </trkpt>
      <trkpt lat="44.25805" lon="0.8539">
        <ele>193</ele>
        <time>2024-06-06T08:53:34.000Z</time>
      </trkpt>
      <trkpt lat="44.25812" lon="0.8538">
        <ele>190.3</ele>
        <time>2024-06-06T08:53:42.000Z</time>
      </trkpt>
      <trkpt lat="44.25825" lon="0.85357">
        <ele>188.9</ele>
        <time>2024-06-06T08:53:58.000Z</time>
      </trkpt>
      <trkpt lat="44.25828" lon="0.85351">
        <ele>189</ele>
        <time>2024-06-06T08:54:02.000Z</time>
      </trkpt>
      <trkpt lat="44.25835" lon="0.85342">
        <ele>189.6</ele>
        <time>2024-06-06T08:54:10.000Z</time>
      </trkpt>
      <trkpt lat="44.25839" lon="0.85333">
        <ele>188</ele>
        <time>2024-06-06T08:54:18.000Z</time>
      </trkpt>
      <trkpt lat="44.25844" lon="0.85323">
        <ele>185.9</ele>
        <time>2024-06-06T08:54:26.000Z</time>
      </trkpt>
      <trkpt lat="44.25849" lon="0.85314">
        <ele>184.6</ele>
        <time>2024-06-06T08:54:34.000Z</time>
      </trkpt>
      <trkpt lat="44.2585" lon="0.85312">
        <ele>184.4</ele>
        <time>2024-06-06T08:54:38.000Z</time>
      </trkpt>
      <trkpt lat="44.25853" lon="0.85307">
        <ele>184.3</ele>
        <time>2024-06-06T08:54:46.000Z</time>
      </trkpt>
      <trkpt lat="44.25857" lon="0.85298">
        <ele>184.2</ele>
        <time>2024-06-06T08:54:58.000Z</time>
      </trkpt>
      <trkpt lat="44.2586" lon="0.85296">
        <ele>184.3</ele>
        <time>2024-06-06T08:55:02.000Z</time>
      </trkpt>
      <trkpt lat="44.25862" lon="0.85295">
        <ele>184.1</ele>
        <time>2024-06-06T08:55:04.000Z</time>
      </trkpt>
      <trkpt lat="44.25865" lon="0.85291">
        <ele>183.1</ele>
        <time>2024-06-06T08:55:08.000Z</time>
      </trkpt>
      <trkpt lat="44.25868" lon="0.8529">
        <ele>182.4</ele>
        <time>2024-06-06T08:55:12.000Z</time>
      </trkpt>
      <trkpt lat="44.2587" lon="0.85287">
        <ele>181.8</ele>
        <time>2024-06-06T08:55:16.000Z</time>
      </trkpt>
      <trkpt lat="44.25872" lon="0.85283">
        <ele>181.3</ele>
        <time>2024-06-06T08:55:20.000Z</time>
      </trkpt>
      <trkpt lat="44.25874" lon="0.85276">
        <ele>180.7</ele>
        <time>2024-06-06T08:55:28.000Z</time>
      </trkpt>
      <trkpt lat="44.25877" lon="0.85271">
        <ele>179.4</ele>
        <time>2024-06-06T08:55:34.000Z</time>
      </trkpt>
      <trkpt lat="44.2588" lon="0.85261">
        <ele>178</ele>
        <time>2024-06-06T08:55:42.000Z</time>
      </trkpt>
      <trkpt lat="44.25882" lon="0.85256">
        <ele>177.3</ele>
        <time>2024-06-06T08:55:46.000Z</time>
      </trkpt>
      <trkpt lat="44.25884" lon="0.85246">
        <ele>176.4</ele>
        <time>2024-06-06T08:55:54.000Z</time>
      </trkpt>
      <trkpt lat="44.25888" lon="0.85241">
        <ele>175.7</ele>
        <time>2024-06-06T08:55:58.000Z</time>
      </trkpt>
      <trkpt lat="44.25891" lon="0.85232">
        <ele>174.5</ele>
        <time>2024-06-06T08:56:06.000Z</time>
      </trkpt>
      <trkpt lat="44.25897" lon="0.85221">
        <ele>172.5</ele>
        <time>2024-06-06T08:56:16.000Z</time>
      </trkpt>
      <trkpt lat="44.25899" lon="0.8522">
        <ele>172</ele>
        <time>2024-06-06T08:56:18.000Z</time>
      </trkpt>
      <trkpt lat="44.25901" lon="0.85215">
        <ele>171</ele>
        <time>2024-06-06T08:56:22.000Z</time>
      </trkpt>
      <trkpt lat="44.25909" lon="0.85205">
        <ele>169.3</ele>
        <time>2024-06-06T08:56:38.000Z</time>
      </trkpt>
      <trkpt lat="44.2591" lon="0.85201">
        <ele>169.2</ele>
        <time>2024-06-06T08:56:42.000Z</time>
      </trkpt>
      <trkpt lat="44.25913" lon="0.85197">
        <ele>169.1</ele>
        <time>2024-06-06T08:56:46.000Z</time>
      </trkpt>
      <trkpt lat="44.25917" lon="0.85188">
        <ele>168.5</ele>
        <time>2024-06-06T08:56:54.000Z</time>
      </trkpt>
      <trkpt lat="44.25923" lon="0.85172">
        <ele>166.2</ele>
        <time>2024-06-06T08:57:10.000Z</time>
      </trkpt>
      <trkpt lat="44.25927" lon="0.85166">
        <ele>165</ele>
        <time>2024-06-06T08:57:18.000Z</time>
      </trkpt>
      <trkpt lat="44.2593" lon="0.85163">
        <ele>164.3</ele>
        <time>2024-06-06T08:57:22.000Z</time>
      </trkpt>
      <trkpt lat="44.25933" lon="0.85155">
        <ele>163.2</ele>
        <time>2024-06-06T08:57:30.000Z</time>
      </trkpt>
      <trkpt lat="44.25937" lon="0.85149">
        <ele>162.5</ele>
        <time>2024-06-06T08:57:38.000Z</time>
      </trkpt>
      <trkpt lat="44.25944" lon="0.85141">
        <ele>162</ele>
        <time>2024-06-06T08:57:50.000Z</time>
      </trkpt>
      <trkpt lat="44.25945" lon="0.85138">
        <ele>161.7</ele>
        <time>2024-06-06T08:57:54.000Z</time>
      </trkpt>
      <trkpt lat="44.25946" lon="0.85135">
        <ele>161.4</ele>
        <time>2024-06-06T08:58:08.000Z</time>
      </trkpt>
      <trkpt lat="44.25949" lon="0.85131">
        <ele>160.6</ele>
        <time>2024-06-06T08:58:12.000Z</time>
      </trkpt>
      <trkpt lat="44.2595" lon="0.85127">
        <ele>160.1</ele>
        <time>2024-06-06T08:58:16.000Z</time>
      </trkpt>
      <trkpt lat="44.25953" lon="0.85123">
        <ele>159.6</ele>
        <time>2024-06-06T08:58:20.000Z</time>
      </trkpt>
      <trkpt lat="44.25957" lon="0.85114">
        <ele>159.1</ele>
        <time>2024-06-06T08:58:28.000Z</time>
      </trkpt>
      <trkpt lat="44.25964" lon="0.85103">
        <ele>157.4</ele>
        <time>2024-06-06T08:58:40.000Z</time>
      </trkpt>
      <trkpt lat="44.25969" lon="0.85097">
        <ele>156.1</ele>
        <time>2024-06-06T08:58:48.000Z</time>
      </trkpt>
      <trkpt lat="44.25972" lon="0.85093">
        <ele>155.4</ele>
        <time>2024-06-06T08:58:52.000Z</time>
      </trkpt>
      <trkpt lat="44.25978" lon="0.85086">
        <ele>153.9</ele>
        <time>2024-06-06T08:59:00.000Z</time>
      </trkpt>
      <trkpt lat="44.25983" lon="0.85078">
        <ele>152.7</ele>
        <time>2024-06-06T08:59:08.000Z</time>
      </trkpt>
      <trkpt lat="44.25985" lon="0.85077">
        <ele>152.4</ele>
        <time>2024-06-06T08:59:12.000Z</time>
      </trkpt>
      <trkpt lat="44.25986" lon="0.85075">
        <ele>152.1</ele>
        <time>2024-06-06T08:59:20.000Z</time>
      </trkpt>
      <trkpt lat="44.25987" lon="0.85072">
        <ele>151.7</ele>
        <time>2024-06-06T08:59:28.000Z</time>
      </trkpt>
      <trkpt lat="44.25989" lon="0.8507">
        <ele>151.3</ele>
        <time>2024-06-06T08:59:32.000Z</time>
      </trkpt>
      <trkpt lat="44.2599" lon="0.85068">
        <ele>150.9</ele>
        <time>2024-06-06T08:59:36.000Z</time>
      </trkpt>
      <trkpt lat="44.25994" lon="0.85064">
        <ele>149.9</ele>
        <time>2024-06-06T08:59:44.000Z</time>
      </trkpt>
      <trkpt lat="44.25999" lon="0.85061">
        <ele>148.9</ele>
        <time>2024-06-06T08:59:54.000Z</time>
      </trkpt>
      <trkpt lat="44.26004" lon="0.85054">
        <ele>147.5</ele>
        <time>2024-06-06T09:00:06.000Z</time>
      </trkpt>
      <trkpt lat="44.26008" lon="0.85052">
        <ele>146.8</ele>
        <time>2024-06-06T09:00:14.000Z</time>
      </trkpt>
      <trkpt lat="44.26011" lon="0.85048">
        <ele>146.3</ele>
        <time>2024-06-06T09:00:18.000Z</time>
      </trkpt>
      <trkpt lat="44.26018" lon="0.85042">
        <ele>145.1</ele>
        <time>2024-06-06T09:00:30.000Z</time>
      </trkpt>
      <trkpt lat="44.26021" lon="0.85039">
        <ele>144.5</ele>
        <time>2024-06-06T09:00:34.000Z</time>
      </trkpt>
      <trkpt lat="44.26024" lon="0.85037">
        <ele>144.2</ele>
        <time>2024-06-06T09:00:38.000Z</time>
      </trkpt>
      <trkpt lat="44.26033" lon="0.85025">
        <ele>142.2</ele>
        <time>2024-06-06T09:00:56.000Z</time>
      </trkpt>
      <trkpt lat="44.26035" lon="0.85024">
        <ele>142</ele>
        <time>2024-06-06T09:00:58.000Z</time>
      </trkpt>
      <trkpt lat="44.26037" lon="0.85024">
        <ele>141.8</ele>
        <time>2024-06-06T09:01:00.000Z</time>
      </trkpt>
      <trkpt lat="44.26041" lon="0.85019">
        <ele>141.1</ele>
        <time>2024-06-06T09:01:08.000Z</time>
      </trkpt>
      <trkpt lat="44.26042" lon="0.85018">
        <ele>141</ele>
        <time>2024-06-06T09:01:16.000Z</time>
      </trkpt>
      <trkpt lat="44.26043" lon="0.85017">
        <ele>140.8</ele>
        <time>2024-06-06T09:01:20.000Z</time>
      </trkpt>
      <trkpt lat="44.26044" lon="0.85015">
        <ele>140.6</ele>
        <time>2024-06-06T09:01:28.000Z</time>
      </trkpt>
      <trkpt lat="44.26045" lon="0.85008">
        <ele>140.1</ele>
        <time>2024-06-06T09:02:12.000Z</time>
      </trkpt>
      <trkpt lat="44.26033" lon="0.84985">
        <ele>138.7</ele>
        <time>2024-06-06T09:02:32.000Z</time>
      </trkpt>
      <trkpt lat="44.26032" lon="0.84983">
        <ele>138.4</ele>
        <time>2024-06-06T09:02:34.000Z</time>
      </trkpt>
      <trkpt lat="44.26028" lon="0.84974">
        <ele>137.3</ele>
        <time>2024-06-06T09:02:42.000Z</time>
      </trkpt>
      <trkpt lat="44.26027" lon="0.84973">
        <ele>137.1</ele>
        <time>2024-06-06T09:02:44.000Z</time>
      </trkpt>
      <trkpt lat="44.26025" lon="0.84969">
        <ele>136.6</ele>
        <time>2024-06-06T09:02:48.000Z</time>
      </trkpt>
      <trkpt lat="44.2602" lon="0.84963">
        <ele>135.7</ele>
        <time>2024-06-06T09:02:56.000Z</time>
      </trkpt>
      <trkpt lat="44.26011" lon="0.84948">
        <ele>132.7</ele>
        <time>2024-06-06T09:03:12.000Z</time>
      </trkpt>
      <trkpt lat="44.26007" lon="0.84942">
        <ele>131.3</ele>
        <time>2024-06-06T09:03:20.000Z</time>
      </trkpt>
      <trkpt lat="44.26005" lon="0.8494">
        <ele>130.9</ele>
        <time>2024-06-06T09:03:24.000Z</time>
      </trkpt>
      <trkpt lat="44.26" lon="0.84932">
        <ele>129.2</ele>
        <time>2024-06-06T09:03:32.000Z</time>
      </trkpt>
      <trkpt lat="44.25996" lon="0.84929">
        <ele>128.7</ele>
        <time>2024-06-06T09:03:36.000Z</time>
      </trkpt>
      <trkpt lat="44.25984" lon="0.84913">
        <ele>125.1</ele>
        <time>2024-06-06T09:03:54.000Z</time>
      </trkpt>
      <trkpt lat="44.25981" lon="0.8491">
        <ele>124.5</ele>
        <time>2024-06-06T09:03:56.000Z</time>
      </trkpt>
      <trkpt lat="44.25974" lon="0.84908">
        <ele>123.6</ele>
        <time>2024-06-06T09:04:00.000Z</time>
      </trkpt>
      <trkpt lat="44.25964" lon="0.84905">
        <ele>122.4</ele>
        <time>2024-06-06T09:04:08.000Z</time>
      </trkpt>
      <trkpt lat="44.25961" lon="0.84905">
        <ele>122.1</ele>
        <time>2024-06-06T09:04:12.000Z</time>
      </trkpt>
      <trkpt lat="44.25956" lon="0.84904">
        <ele>121.6</ele>
        <time>2024-06-06T09:04:16.000Z</time>
      </trkpt>
      <trkpt lat="44.25951" lon="0.84902">
        <ele>120.8</ele>
        <time>2024-06-06T09:04:22.000Z</time>
      </trkpt>
      <trkpt lat="44.2594" lon="0.84901">
        <ele>119.8</ele>
        <time>2024-06-06T09:04:32.000Z</time>
      </trkpt>
      <trkpt lat="44.25927" lon="0.84896">
        <ele>118.2</ele>
        <time>2024-06-06T09:04:44.000Z</time>
      </trkpt>
      <trkpt lat="44.25918" lon="0.84894">
        <ele>117.1</ele>
        <time>2024-06-06T09:04:52.000Z</time>
      </trkpt>
      <trkpt lat="44.2591" lon="0.84891">
        <ele>115.9</ele>
        <time>2024-06-06T09:05:00.000Z</time>
      </trkpt>
      <trkpt lat="44.25906" lon="0.84891">
        <ele>115.6</ele>
        <time>2024-06-06T09:05:04.000Z</time>
      </trkpt>
      <trkpt lat="44.25904" lon="0.8489">
        <ele>115.4</ele>
        <time>2024-06-06T09:05:06.000Z</time>
      </trkpt>
      <trkpt lat="44.25901" lon="0.84889">
        <ele>114.8</ele>
        <time>2024-06-06T09:05:10.000Z</time>
      </trkpt>
      <trkpt lat="44.25897" lon="0.84887">
        <ele>114.2</ele>
        <time>2024-06-06T09:05:14.000Z</time>
      </trkpt>
      <trkpt lat="44.25857" lon="0.84873">
        <ele>108.7</ele>
        <time>2024-06-06T09:05:50.000Z</time>
      </trkpt>
      <trkpt lat="44.25855" lon="0.84872">
        <ele>108.6</ele>
        <time>2024-06-06T09:05:52.000Z</time>
      </trkpt>
      <trkpt lat="44.25846" lon="0.84867">
        <ele>108.2</ele>
        <time>2024-06-06T09:06:02.000Z</time>
      </trkpt>
      <trkpt lat="44.25842" lon="0.84866">
        <ele>108.1</ele>
        <time>2024-06-06T09:06:06.000Z</time>
      </trkpt>
      <trkpt lat="44.2584" lon="0.84865">
        <ele>108.1</ele>
        <time>2024-06-06T09:06:08.000Z</time>
      </trkpt>
      <trkpt lat="44.25838" lon="0.84864">
        <ele>108</ele>
        <time>2024-06-06T09:06:10.000Z</time>
      </trkpt>
      <trkpt lat="44.25834" lon="0.84863">
        <ele>108</ele>
        <time>2024-06-06T09:06:14.000Z</time>
      </trkpt>
      <trkpt lat="44.25831" lon="0.84861">
        <ele>108</ele>
        <time>2024-06-06T09:06:18.000Z</time>
      </trkpt>
      <trkpt lat="44.25825" lon="0.84858">
        <ele>107.9</ele>
        <time>2024-06-06T09:06:22.000Z</time>
      </trkpt>
      <trkpt lat="44.2582" lon="0.84857">
        <ele>107.9</ele>
        <time>2024-06-06T09:06:26.000Z</time>
      </trkpt>
      <trkpt lat="44.25815" lon="0.84855">
        <ele>107.9</ele>
        <time>2024-06-06T09:06:30.000Z</time>
      </trkpt>
      <trkpt lat="44.25809" lon="0.84853">
        <ele>108</ele>
        <time>2024-06-06T09:06:34.000Z</time>
      </trkpt>
      <trkpt lat="44.25766" lon="0.84836">
        <ele>113</ele>
        <time>2024-06-06T09:07:14.000Z</time>
      </trkpt>
      <trkpt lat="44.25763" lon="0.84836">
        <ele>113.7</ele>
        <time>2024-06-06T09:07:18.000Z</time>
      </trkpt>
      <trkpt lat="44.25753" lon="0.84833">
        <ele>115.4</ele>
        <time>2024-06-06T09:07:30.000Z</time>
      </trkpt>
      <trkpt lat="44.25753" lon="0.84833">
        <ele>115.5</ele>
        <time>2024-06-06T09:07:34.000Z</time>
      </trkpt>
      <trkpt lat="44.25753" lon="0.84833">
        <ele>115.5</ele>
        <time>2024-06-06T09:07:38.000Z</time>
      </trkpt>
      <trkpt lat="44.25751" lon="0.84832">
        <ele>115.9</ele>
        <time>2024-06-06T09:07:42.000Z</time>
      </trkpt>
      <trkpt lat="44.25748" lon="0.8483">
        <ele>116.5</ele>
        <time>2024-06-06T09:07:46.000Z</time>
      </trkpt>
      <trkpt lat="44.25734" lon="0.8482">
        <ele>118.8</ele>
        <time>2024-06-06T09:08:02.000Z</time>
      </trkpt>
      <trkpt lat="44.2572" lon="0.84811">
        <ele>121.1</ele>
        <time>2024-06-06T09:08:18.000Z</time>
      </trkpt>
      <trkpt lat="44.25716" lon="0.84809">
        <ele>121.7</ele>
        <time>2024-06-06T09:08:22.000Z</time>
      </trkpt>
      <trkpt lat="44.25714" lon="0.84805">
        <ele>122.3</ele>
        <time>2024-06-06T09:08:26.000Z</time>
      </trkpt>
      <trkpt lat="44.2571" lon="0.84803">
        <ele>123</ele>
        <time>2024-06-06T09:08:30.000Z</time>
      </trkpt>
      <trkpt lat="44.25705" lon="0.84797">
        <ele>124.3</ele>
        <time>2024-06-06T09:08:38.000Z</time>
      </trkpt>
      <trkpt lat="44.25699" lon="0.84791">
        <ele>125.8</ele>
        <time>2024-06-06T09:08:46.000Z</time>
      </trkpt>
      <trkpt lat="44.25691" lon="0.84778">
        <ele>128.5</ele>
        <time>2024-06-06T09:09:02.000Z</time>
      </trkpt>
      <trkpt lat="44.25674" lon="0.84754">
        <ele>131.8</ele>
        <time>2024-06-06T09:09:30.000Z</time>
      </trkpt>
      <trkpt lat="44.2567" lon="0.84747">
        <ele>132.7</ele>
        <time>2024-06-06T09:09:38.000Z</time>
      </trkpt>
      <trkpt lat="44.25652" lon="0.84721">
        <ele>137.2</ele>
        <time>2024-06-06T09:10:10.000Z</time>
      </trkpt>
      <trkpt lat="44.25647" lon="0.84715">
        <ele>138.4</ele>
        <time>2024-06-06T09:10:18.000Z</time>
      </trkpt>
      <trkpt lat="44.25646" lon="0.84711">
        <ele>138.9</ele>
        <time>2024-06-06T09:10:22.000Z</time>
      </trkpt>
      <trkpt lat="44.25627" lon="0.84685">
        <ele>143.4</ele>
        <time>2024-06-06T09:10:54.000Z</time>
      </trkpt>
      <trkpt lat="44.25609" lon="0.84658">
        <ele>146.4</ele>
        <time>2024-06-06T09:11:26.000Z</time>
      </trkpt>
      <trkpt lat="44.25608" lon="0.84655">
        <ele>146.5</ele>
        <time>2024-06-06T09:11:34.000Z</time>
      </trkpt>
      <trkpt lat="44.25608" lon="0.84653">
        <ele>146.6</ele>
        <time>2024-06-06T09:11:50.000Z</time>
      </trkpt>
      <trkpt lat="44.25608" lon="0.8465">
        <ele>146.6</ele>
        <time>2024-06-06T09:14:10.000Z</time>
      </trkpt>
      <trkpt lat="44.25609" lon="0.84648">
        <ele>146.7</ele>
        <time>2024-06-06T09:14:12.000Z</time>
      </trkpt>
      <trkpt lat="44.25612" lon="0.84646">
        <ele>146.7</ele>
        <time>2024-06-06T09:14:16.000Z</time>
      </trkpt>
      <trkpt lat="44.25632" lon="0.84634">
        <ele>145.3</ele>
        <time>2024-06-06T09:14:40.000Z</time>
      </trkpt>
      <trkpt lat="44.25654" lon="0.84619">
        <ele>143.9</ele>
        <time>2024-06-06T09:15:04.000Z</time>
      </trkpt>
      <trkpt lat="44.2567" lon="0.84609">
        <ele>142.7</ele>
        <time>2024-06-06T09:15:20.000Z</time>
      </trkpt>
      <trkpt lat="44.25677" lon="0.84603">
        <ele>142.1</ele>
        <time>2024-06-06T09:15:28.000Z</time>
      </trkpt>
      <trkpt lat="44.25688" lon="0.84598">
        <ele>141.4</ele>
        <time>2024-06-06T09:15:38.000Z</time>
      </trkpt>
      <trkpt lat="44.25696" lon="0.84594">
        <ele>140.9</ele>
        <time>2024-06-06T09:15:46.000Z</time>
      </trkpt>
      <trkpt lat="44.25712" lon="0.84583">
        <ele>140.3</ele>
        <time>2024-06-06T09:16:02.000Z</time>
      </trkpt>
      <trkpt lat="44.2572" lon="0.84575">
        <ele>139.5</ele>
        <time>2024-06-06T09:16:10.000Z</time>
      </trkpt>
      <trkpt lat="44.25735" lon="0.84561">
        <ele>138</ele>
        <time>2024-06-06T09:16:26.000Z</time>
      </trkpt>
      <trkpt lat="44.25746" lon="0.8455">
        <ele>137.7</ele>
        <time>2024-06-06T09:16:38.000Z</time>
      </trkpt>
      <trkpt lat="44.25761" lon="0.84535">
        <ele>136.7</ele>
        <time>2024-06-06T09:16:54.000Z</time>
      </trkpt>
      <trkpt lat="44.25776" lon="0.84519">
        <ele>135.7</ele>
        <time>2024-06-06T09:17:10.000Z</time>
      </trkpt>
      <trkpt lat="44.2579" lon="0.84502">
        <ele>134.6</ele>
        <time>2024-06-06T09:17:26.000Z</time>
      </trkpt>
      <trkpt lat="44.25796" lon="0.84492">
        <ele>134.1</ele>
        <time>2024-06-06T09:17:34.000Z</time>
      </trkpt>
      <trkpt lat="44.25811" lon="0.84476">
        <ele>132.6</ele>
        <time>2024-06-06T09:17:50.000Z</time>
      </trkpt>
      <trkpt lat="44.25824" lon="0.84458">
        <ele>130.5</ele>
        <time>2024-06-06T09:18:06.000Z</time>
      </trkpt>
      <trkpt lat="44.25831" lon="0.8445">
        <ele>129.5</ele>
        <time>2024-06-06T09:18:14.000Z</time>
      </trkpt>
      <trkpt lat="44.25834" lon="0.84449">
        <ele>129.1</ele>
        <time>2024-06-06T09:18:18.000Z</time>
      </trkpt>
      <trkpt lat="44.25837" lon="0.84446">
        <ele>128.7</ele>
        <time>2024-06-06T09:18:22.000Z</time>
      </trkpt>
      <trkpt lat="44.25842" lon="0.84436">
        <ele>127.8</ele>
        <time>2024-06-06T09:18:30.000Z</time>
      </trkpt>
      <trkpt lat="44.25868" lon="0.84403">
        <ele>124.1</ele>
        <time>2024-06-06T09:19:02.000Z</time>
      </trkpt>
      <trkpt lat="44.25902" lon="0.84361">
        <ele>119.1</ele>
        <time>2024-06-06T09:19:42.000Z</time>
      </trkpt>
      <trkpt lat="44.25912" lon="0.84347">
        <ele>118.1</ele>
        <time>2024-06-06T09:19:54.000Z</time>
      </trkpt>
      <trkpt lat="44.25933" lon="0.84322">
        <ele>115.8</ele>
        <time>2024-06-06T09:20:18.000Z</time>
      </trkpt>
      <trkpt lat="44.25945" lon="0.84304">
        <ele>115</ele>
        <time>2024-06-06T09:20:34.000Z</time>
      </trkpt>
      <trkpt lat="44.25971" lon="0.84269">
        <ele>112.4</ele>
        <time>2024-06-06T09:21:06.000Z</time>
      </trkpt>
      <trkpt lat="44.25974" lon="0.84264">
        <ele>112.3</ele>
        <time>2024-06-06T09:21:10.000Z</time>
      </trkpt>
      <trkpt lat="44.25982" lon="0.84255">
        <ele>111.9</ele>
        <time>2024-06-06T09:21:18.000Z</time>
      </trkpt>
      <trkpt lat="44.26016" lon="0.8421">
        <ele>108.6</ele>
        <time>2024-06-06T09:21:58.000Z</time>
      </trkpt>
      <trkpt lat="44.26022" lon="0.84201">
        <ele>107.8</ele>
        <time>2024-06-06T09:22:06.000Z</time>
      </trkpt>
      <trkpt lat="44.26052" lon="0.84163">
        <ele>104.5</ele>
        <time>2024-06-06T09:22:42.000Z</time>
      </trkpt>
      <trkpt lat="44.2606" lon="0.84149">
        <ele>103.7</ele>
        <time>2024-06-06T09:22:54.000Z</time>
      </trkpt>
      <trkpt lat="44.26064" lon="0.84145">
        <ele>103.5</ele>
        <time>2024-06-06T09:22:58.000Z</time>
      </trkpt>
      <trkpt lat="44.26084" lon="0.84116">
        <ele>100.4</ele>
        <time>2024-06-06T09:23:22.000Z</time>
      </trkpt>
      <trkpt lat="44.26097" lon="0.84097">
        <ele>98.4</ele>
        <time>2024-06-06T09:23:38.000Z</time>
      </trkpt>
      <trkpt lat="44.26118" lon="0.84061">
        <ele>94.5</ele>
        <time>2024-06-06T09:24:06.000Z</time>
      </trkpt>
      <trkpt lat="44.26125" lon="0.84051">
        <ele>93.8</ele>
        <time>2024-06-06T09:24:14.000Z</time>
      </trkpt>
      <trkpt lat="44.26137" lon="0.84029">
        <ele>93</ele>
        <time>2024-06-06T09:24:30.000Z</time>
      </trkpt>
      <trkpt lat="44.26141" lon="0.84017">
        <ele>92.8</ele>
        <time>2024-06-06T09:24:38.000Z</time>
      </trkpt>
      <trkpt lat="44.2615" lon="0.83986">
        <ele>91.5</ele>
        <time>2024-06-06T09:24:58.000Z</time>
      </trkpt>
      <trkpt lat="44.26155" lon="0.8396">
        <ele>91.2</ele>
        <time>2024-06-06T09:25:14.000Z</time>
      </trkpt>
      <trkpt lat="44.2616" lon="0.83937">
        <ele>90.9</ele>
        <time>2024-06-06T09:25:30.000Z</time>
      </trkpt>
      <trkpt lat="44.26162" lon="0.83932">
        <ele>90.6</ele>
        <time>2024-06-06T09:25:42.000Z</time>
      </trkpt>
      <trkpt lat="44.26165" lon="0.83921">
        <ele>90.2</ele>
        <time>2024-06-06T09:26:30.000Z</time>
      </trkpt>
      <trkpt lat="44.26182" lon="0.8387">
        <ele>89.7</ele>
        <time>2024-06-06T09:27:02.000Z</time>
      </trkpt>
      <trkpt lat="44.26186" lon="0.83859">
        <ele>89.7</ele>
        <time>2024-06-06T09:27:10.000Z</time>
      </trkpt>
      <trkpt lat="44.2619" lon="0.83848">
        <ele>89.7</ele>
        <time>2024-06-06T09:27:22.000Z</time>
      </trkpt>
      <trkpt lat="44.262" lon="0.83813">
        <ele>89.5</ele>
        <time>2024-06-06T09:27:46.000Z</time>
      </trkpt>
      <trkpt lat="44.26208" lon="0.8379">
        <ele>89</ele>
        <time>2024-06-06T09:28:02.000Z</time>
      </trkpt>
      <trkpt lat="44.26226" lon="0.83742">
        <ele>88.7</ele>
        <time>2024-06-06T09:28:34.000Z</time>
      </trkpt>
      <trkpt lat="44.2625" lon="0.83686">
        <ele>87.3</ele>
        <time>2024-06-06T09:29:10.000Z</time>
      </trkpt>
      <trkpt lat="44.2626" lon="0.83665">
        <ele>87.3</ele>
        <time>2024-06-06T09:29:24.000Z</time>
      </trkpt>
      <trkpt lat="44.26262" lon="0.83664">
        <ele>87.1</ele>
        <time>2024-06-06T09:29:26.000Z</time>
      </trkpt>
      <trkpt lat="44.26264" lon="0.83663">
        <ele>87</ele>
        <time>2024-06-06T09:29:28.000Z</time>
      </trkpt>
      <trkpt lat="44.26265" lon="0.83661">
        <ele>86.9</ele>
        <time>2024-06-06T09:29:30.000Z</time>
      </trkpt>
      <trkpt lat="44.2627" lon="0.83649">
        <ele>86.6</ele>
        <time>2024-06-06T09:29:38.000Z</time>
      </trkpt>
      <trkpt lat="44.26296" lon="0.83606">
        <ele>85.7</ele>
        <time>2024-06-06T09:30:10.000Z</time>
      </trkpt>
      <trkpt lat="44.26309" lon="0.83587">
        <ele>84.9</ele>
        <time>2024-06-06T09:30:26.000Z</time>
      </trkpt>
      <trkpt lat="44.26314" lon="0.83581">
        <ele>84.7</ele>
        <time>2024-06-06T09:30:34.000Z</time>
      </trkpt>
      <trkpt lat="44.26315" lon="0.83578">
        <ele>84.7</ele>
        <time>2024-06-06T09:30:36.000Z</time>
      </trkpt>
      <trkpt lat="44.26315" lon="0.8357">
        <ele>84.7</ele>
        <time>2024-06-06T09:30:40.000Z</time>
      </trkpt>
      <trkpt lat="44.26315" lon="0.83567">
        <ele>84.7</ele>
        <time>2024-06-06T09:30:42.000Z</time>
      </trkpt>
      <trkpt lat="44.26313" lon="0.83563">
        <ele>84.7</ele>
        <time>2024-06-06T09:30:46.000Z</time>
      </trkpt>
      <trkpt lat="44.26307" lon="0.83554">
        <ele>85</ele>
        <time>2024-06-06T09:30:54.000Z</time>
      </trkpt>
      <trkpt lat="44.26286" lon="0.83529">
        <ele>86</ele>
        <time>2024-06-06T09:31:18.000Z</time>
      </trkpt>
      <trkpt lat="44.26279" lon="0.8352">
        <ele>86.3</ele>
        <time>2024-06-06T09:31:26.000Z</time>
      </trkpt>
      <trkpt lat="44.26271" lon="0.83511">
        <ele>86.9</ele>
        <time>2024-06-06T09:31:34.000Z</time>
      </trkpt>
      <trkpt lat="44.26264" lon="0.83502">
        <ele>87.5</ele>
        <time>2024-06-06T09:31:42.000Z</time>
      </trkpt>
      <trkpt lat="44.26259" lon="0.83497">
        <ele>87.6</ele>
        <time>2024-06-06T09:31:46.000Z</time>
      </trkpt>
      <trkpt lat="44.26252" lon="0.83488">
        <ele>87.5</ele>
        <time>2024-06-06T09:31:54.000Z</time>
      </trkpt>
      <trkpt lat="44.26246" lon="0.83479">
        <ele>87.4</ele>
        <time>2024-06-06T09:32:02.000Z</time>
      </trkpt>
      <trkpt lat="44.26237" lon="0.83468">
        <ele>87.3</ele>
        <time>2024-06-06T09:32:14.000Z</time>
      </trkpt>
      <trkpt lat="44.26233" lon="0.83466">
        <ele>87.3</ele>
        <time>2024-06-06T09:32:18.000Z</time>
      </trkpt>
      <trkpt lat="44.26229" lon="0.83462">
        <ele>87.1</ele>
        <time>2024-06-06T09:32:22.000Z</time>
      </trkpt>
      <trkpt lat="44.26221" lon="0.83453">
        <ele>86.7</ele>
        <time>2024-06-06T09:32:30.000Z</time>
      </trkpt>
      <trkpt lat="44.26212" lon="0.83444">
        <ele>86.3</ele>
        <time>2024-06-06T09:32:38.000Z</time>
      </trkpt>
      <trkpt lat="44.26192" lon="0.83419">
        <ele>85.4</ele>
        <time>2024-06-06T09:33:00.000Z</time>
      </trkpt>
      <trkpt lat="44.26191" lon="0.83417">
        <ele>85.3</ele>
        <time>2024-06-06T09:33:02.000Z</time>
      </trkpt>
      <trkpt lat="44.26191" lon="0.83415">
        <ele>85.2</ele>
        <time>2024-06-06T09:33:04.000Z</time>
      </trkpt>
      <trkpt lat="44.2619" lon="0.83412">
        <ele>85.2</ele>
        <time>2024-06-06T09:33:06.000Z</time>
      </trkpt>
      <trkpt lat="44.26187" lon="0.83409">
        <ele>85.2</ele>
        <time>2024-06-06T09:33:10.000Z</time>
      </trkpt>
      <trkpt lat="44.26184" lon="0.83407">
        <ele>85.3</ele>
        <time>2024-06-06T09:33:14.000Z</time>
      </trkpt>
      <trkpt lat="44.2618" lon="0.83404">
        <ele>85.3</ele>
        <time>2024-06-06T09:33:18.000Z</time>
      </trkpt>
      <trkpt lat="44.26145" lon="0.83362">
        <ele>84.8</ele>
        <time>2024-06-06T09:33:58.000Z</time>
      </trkpt>
      <trkpt lat="44.26138" lon="0.83352">
        <ele>84.7</ele>
        <time>2024-06-06T09:34:06.000Z</time>
      </trkpt>
      <trkpt lat="44.26126" lon="0.83339">
        <ele>84.7</ele>
        <time>2024-06-06T09:34:18.000Z</time>
      </trkpt>
      <trkpt lat="44.26113" lon="0.83322">
        <ele>84.5</ele>
        <time>2024-06-06T09:34:34.000Z</time>
      </trkpt>
      <trkpt lat="44.26084" lon="0.83287">
        <ele>84.6</ele>
        <time>2024-06-06T09:35:06.000Z</time>
      </trkpt>
      <trkpt lat="44.2608" lon="0.83287">
        <ele>84.9</ele>
        <time>2024-06-06T09:35:27.000Z</time>
      </trkpt>
      <trkpt lat="44.26077" lon="0.83287">
        <ele>85.2</ele>
        <time>2024-06-06T09:35:37.000Z</time>
      </trkpt>
      <trkpt lat="44.26071" lon="0.83294">
        <ele>85.9</ele>
        <time>2024-06-06T09:35:45.000Z</time>
      </trkpt>
      <trkpt lat="44.26069" lon="0.83298">
        <ele>86.3</ele>
        <time>2024-06-06T09:35:49.000Z</time>
      </trkpt>
      <trkpt lat="44.26059" lon="0.83318">
        <ele>87.3</ele>
        <time>2024-06-06T09:36:05.000Z</time>
      </trkpt>
      <trkpt lat="44.26052" lon="0.83333">
        <ele>88.4</ele>
        <time>2024-06-06T09:36:17.000Z</time>
      </trkpt>
      <trkpt lat="44.26046" lon="0.83343">
        <ele>89.7</ele>
        <time>2024-06-06T09:36:25.000Z</time>
      </trkpt>
      <trkpt lat="44.26042" lon="0.83354">
        <ele>90.9</ele>
        <time>2024-06-06T09:36:33.000Z</time>
      </trkpt>
      <trkpt lat="44.26036" lon="0.83373">
        <ele>93.4</ele>
        <time>2024-06-06T09:36:49.000Z</time>
      </trkpt>
      <trkpt lat="44.26035" lon="0.83378">
        <ele>94</ele>
        <time>2024-06-06T09:36:53.000Z</time>
      </trkpt>
      <trkpt lat="44.26034" lon="0.83383">
        <ele>94.7</ele>
        <time>2024-06-06T09:36:57.000Z</time>
      </trkpt>
      <trkpt lat="44.26034" lon="0.83389">
        <ele>95.4</ele>
        <time>2024-06-06T09:37:01.000Z</time>
      </trkpt>
      <trkpt lat="44.26033" lon="0.83391">
        <ele>95.6</ele>
        <time>2024-06-06T09:37:03.000Z</time>
      </trkpt>
      <trkpt lat="44.26033" lon="0.83397">
        <ele>96.1</ele>
        <time>2024-06-06T09:37:07.000Z</time>
      </trkpt>
      <trkpt lat="44.26032" lon="0.83402">
        <ele>96.6</ele>
        <time>2024-06-06T09:37:11.000Z</time>
      </trkpt>
      <trkpt lat="44.26031" lon="0.8341">
        <ele>97.3</ele>
        <time>2024-06-06T09:37:17.000Z</time>
      </trkpt>
      <trkpt lat="44.2603" lon="0.83414">
        <ele>97.7</ele>
        <time>2024-06-06T09:37:21.000Z</time>
      </trkpt>
      <trkpt lat="44.26028" lon="0.83435">
        <ele>100</ele>
        <time>2024-06-06T09:37:37.000Z</time>
      </trkpt>
      <trkpt lat="44.26025" lon="0.83448">
        <ele>101.7</ele>
        <time>2024-06-06T09:37:49.000Z</time>
      </trkpt>
      <trkpt lat="44.26022" lon="0.83456">
        <ele>102.9</ele>
        <time>2024-06-06T09:37:57.000Z</time>
      </trkpt>
      <trkpt lat="44.26013" lon="0.83479">
        <ele>105.4</ele>
        <time>2024-06-06T09:38:17.000Z</time>
      </trkpt>
      <trkpt lat="44.2601" lon="0.83483">
        <ele>105.5</ele>
        <time>2024-06-06T09:38:21.000Z</time>
      </trkpt>
      <trkpt lat="44.26005" lon="0.83493">
        <ele>105.7</ele>
        <time>2024-06-06T09:38:29.000Z</time>
      </trkpt>
      <trkpt lat="44.25998" lon="0.83507">
        <ele>106.1</ele>
        <time>2024-06-06T09:38:41.000Z</time>
      </trkpt>
      <trkpt lat="44.25992" lon="0.83523">
        <ele>106.5</ele>
        <time>2024-06-06T09:38:55.000Z</time>
      </trkpt>
      <trkpt lat="44.25987" lon="0.83536">
        <ele>106.9</ele>
        <time>2024-06-06T09:39:05.000Z</time>
      </trkpt>
      <trkpt lat="44.25984" lon="0.83541">
        <ele>107.2</ele>
        <time>2024-06-06T09:39:09.000Z</time>
      </trkpt>
      <trkpt lat="44.2598" lon="0.83548">
        <ele>107.3</ele>
        <time>2024-06-06T09:39:15.000Z</time>
      </trkpt>
      <trkpt lat="44.25974" lon="0.83558">
        <ele>107.7</ele>
        <time>2024-06-06T09:39:23.000Z</time>
      </trkpt>
      <trkpt lat="44.25967" lon="0.83568">
        <ele>108.1</ele>
        <time>2024-06-06T09:39:31.000Z</time>
      </trkpt>
      <trkpt lat="44.2596" lon="0.83586">
        <ele>108.6</ele>
        <time>2024-06-06T09:39:43.000Z</time>
      </trkpt>
      <trkpt lat="44.25942" lon="0.83616">
        <ele>108.9</ele>
        <time>2024-06-06T09:40:07.000Z</time>
      </trkpt>
      <trkpt lat="44.25937" lon="0.83627">
        <ele>108.7</ele>
        <time>2024-06-06T09:40:15.000Z</time>
      </trkpt>
      <trkpt lat="44.25931" lon="0.83638">
        <ele>109</ele>
        <time>2024-06-06T09:40:23.000Z</time>
      </trkpt>
      <trkpt lat="44.25925" lon="0.83648">
        <ele>109.6</ele>
        <time>2024-06-06T09:40:31.000Z</time>
      </trkpt>
      <trkpt lat="44.25917" lon="0.83656">
        <ele>110.1</ele>
        <time>2024-06-06T09:40:39.000Z</time>
      </trkpt>
      <trkpt lat="44.25913" lon="0.83659">
        <ele>110.3</ele>
        <time>2024-06-06T09:40:43.000Z</time>
      </trkpt>
      <trkpt lat="44.25909" lon="0.83662">
        <ele>110.6</ele>
        <time>2024-06-06T09:40:47.000Z</time>
      </trkpt>
      <trkpt lat="44.25901" lon="0.83667">
        <ele>111.3</ele>
        <time>2024-06-06T09:40:55.000Z</time>
      </trkpt>
      <trkpt lat="44.25895" lon="0.83669">
        <ele>112</ele>
        <time>2024-06-06T09:41:01.000Z</time>
      </trkpt>
      <trkpt lat="44.25889" lon="0.83673">
        <ele>112.6</ele>
        <time>2024-06-06T09:41:07.000Z</time>
      </trkpt>
      <trkpt lat="44.25887" lon="0.83675">
        <ele>112.8</ele>
        <time>2024-06-06T09:41:09.000Z</time>
      </trkpt>
      <trkpt lat="44.25883" lon="0.83677">
        <ele>113.3</ele>
        <time>2024-06-06T09:41:13.000Z</time>
      </trkpt>
      <trkpt lat="44.25878" lon="0.83678">
        <ele>113.9</ele>
        <time>2024-06-06T09:41:17.000Z</time>
      </trkpt>
      <trkpt lat="44.25865" lon="0.83685">
        <ele>115.4</ele>
        <time>2024-06-06T09:41:29.000Z</time>
      </trkpt>
      <trkpt lat="44.25854" lon="0.83694">
        <ele>115.8</ele>
        <time>2024-06-06T09:41:41.000Z</time>
      </trkpt>
      <trkpt lat="44.25846" lon="0.83702">
        <ele>116.7</ele>
        <time>2024-06-06T09:41:49.000Z</time>
      </trkpt>
      <trkpt lat="44.25842" lon="0.83709">
        <ele>117.3</ele>
        <time>2024-06-06T09:41:55.000Z</time>
      </trkpt>
      <trkpt lat="44.25836" lon="0.8372">
        <ele>117.8</ele>
        <time>2024-06-06T09:42:03.000Z</time>
      </trkpt>
      <trkpt lat="44.25824" lon="0.83754">
        <ele>120.6</ele>
        <time>2024-06-06T09:42:27.000Z</time>
      </trkpt>
      <trkpt lat="44.25818" lon="0.83764">
        <ele>121.1</ele>
        <time>2024-06-06T09:42:35.000Z</time>
      </trkpt>
      <trkpt lat="44.25812" lon="0.83773">
        <ele>122</ele>
        <time>2024-06-06T09:42:43.000Z</time>
      </trkpt>
      <trkpt lat="44.25795" lon="0.83788">
        <ele>123.3</ele>
        <time>2024-06-06T09:43:01.000Z</time>
      </trkpt>
      <trkpt lat="44.25795" lon="0.8379">
        <ele>123.3</ele>
        <time>2024-06-06T09:43:05.000Z</time>
      </trkpt>
      <trkpt lat="44.25771" lon="0.8381">
        <ele>125.2</ele>
        <time>2024-06-06T09:43:29.000Z</time>
      </trkpt>
      <trkpt lat="44.25755" lon="0.83825">
        <ele>126.3</ele>
        <time>2024-06-06T09:43:45.000Z</time>
      </trkpt>
      <trkpt lat="44.25739" lon="0.83839">
        <ele>127.7</ele>
        <time>2024-06-06T09:44:01.000Z</time>
      </trkpt>
      <trkpt lat="44.25731" lon="0.83845">
        <ele>128.2</ele>
        <time>2024-06-06T09:44:09.000Z</time>
      </trkpt>
      <trkpt lat="44.25725" lon="0.83853">
        <ele>128.7</ele>
        <time>2024-06-06T09:44:17.000Z</time>
      </trkpt>
      <trkpt lat="44.25718" lon="0.8386">
        <ele>129.8</ele>
        <time>2024-06-06T09:44:25.000Z</time>
      </trkpt>
      <trkpt lat="44.25715" lon="0.83864">
        <ele>130.3</ele>
        <time>2024-06-06T09:44:31.000Z</time>
      </trkpt>
      <trkpt lat="44.25713" lon="0.83867">
        <ele>130.5</ele>
        <time>2024-06-06T09:44:35.000Z</time>
      </trkpt>
      <trkpt lat="44.25709" lon="0.83873">
        <ele>131.2</ele>
        <time>2024-06-06T09:44:49.000Z</time>
      </trkpt>
      <trkpt lat="44.25708" lon="0.83873">
        <ele>131.3</ele>
        <time>2024-06-06T09:44:51.000Z</time>
      </trkpt>
      <trkpt lat="44.25707" lon="0.83876">
        <ele>131.4</ele>
        <time>2024-06-06T09:45:39.000Z</time>
      </trkpt>
      <trkpt lat="44.25707" lon="0.83875">
        <ele>131.4</ele>
        <time>2024-06-06T09:45:47.000Z</time>
      </trkpt>
      <trkpt lat="44.25707" lon="0.83876">
        <ele>131.4</ele>
        <time>2024-06-06T09:45:51.000Z</time>
      </trkpt>
      <trkpt lat="44.25702" lon="0.83879">
        <ele>132.1</ele>
        <time>2024-06-06T09:45:59.000Z</time>
      </trkpt>
      <trkpt lat="44.25699" lon="0.83882">
        <ele>132.6</ele>
        <time>2024-06-06T09:46:05.000Z</time>
      </trkpt>
      <trkpt lat="44.25697" lon="0.83882">
        <ele>132.8</ele>
        <time>2024-06-06T09:46:07.000Z</time>
      </trkpt>
      <trkpt lat="44.25694" lon="0.83882">
        <ele>133.4</ele>
        <time>2024-06-06T09:46:11.000Z</time>
      </trkpt>
      <trkpt lat="44.25688" lon="0.8388">
        <ele>134.2</ele>
        <time>2024-06-06T09:46:19.000Z</time>
      </trkpt>
      <trkpt lat="44.25685" lon="0.83879">
        <ele>134.7</ele>
        <time>2024-06-06T09:46:23.000Z</time>
      </trkpt>
      <trkpt lat="44.2567" lon="0.8388">
        <ele>136.8</ele>
        <time>2024-06-06T09:46:39.000Z</time>
      </trkpt>
      <trkpt lat="44.25664" lon="0.83879">
        <ele>137.9</ele>
        <time>2024-06-06T09:46:47.000Z</time>
      </trkpt>
      <trkpt lat="44.25661" lon="0.83879">
        <ele>138.3</ele>
        <time>2024-06-06T09:46:51.000Z</time>
      </trkpt>
      <trkpt lat="44.25657" lon="0.83879">
        <ele>139.1</ele>
        <time>2024-06-06T09:46:55.000Z</time>
      </trkpt>
      <trkpt lat="44.25654" lon="0.83879">
        <ele>139.6</ele>
        <time>2024-06-06T09:46:59.000Z</time>
      </trkpt>
      <trkpt lat="44.25645" lon="0.83878">
        <ele>141.4</ele>
        <time>2024-06-06T09:47:09.000Z</time>
      </trkpt>
      <trkpt lat="44.25641" lon="0.83878">
        <ele>142</ele>
        <time>2024-06-06T09:47:13.000Z</time>
      </trkpt>
      <trkpt lat="44.25634" lon="0.83881">
        <ele>142.9</ele>
        <time>2024-06-06T09:47:21.000Z</time>
      </trkpt>
      <trkpt lat="44.25632" lon="0.83881">
        <ele>143.1</ele>
        <time>2024-06-06T09:47:23.000Z</time>
      </trkpt>
      <trkpt lat="44.25629" lon="0.8388">
        <ele>144.1</ele>
        <time>2024-06-06T09:47:27.000Z</time>
      </trkpt>
      <trkpt lat="44.25625" lon="0.8388">
        <ele>144.8</ele>
        <time>2024-06-06T09:47:31.000Z</time>
      </trkpt>
      <trkpt lat="44.25619" lon="0.83882">
        <ele>145.8</ele>
        <time>2024-06-06T09:47:39.000Z</time>
      </trkpt>
      <trkpt lat="44.25617" lon="0.83883">
        <ele>146.2</ele>
        <time>2024-06-06T09:47:43.000Z</time>
      </trkpt>
      <trkpt lat="44.25611" lon="0.83883">
        <ele>147.3</ele>
        <time>2024-06-06T09:47:51.000Z</time>
      </trkpt>
      <trkpt lat="44.25608" lon="0.83884">
        <ele>147.8</ele>
        <time>2024-06-06T09:47:55.000Z</time>
      </trkpt>
      <trkpt lat="44.25599" lon="0.83885">
        <ele>149.4</ele>
        <time>2024-06-06T09:48:05.000Z</time>
      </trkpt>
      <trkpt lat="44.25596" lon="0.83884">
        <ele>150.4</ele>
        <time>2024-06-06T09:48:09.000Z</time>
      </trkpt>
      <trkpt lat="44.2559" lon="0.83884">
        <ele>151.5</ele>
        <time>2024-06-06T09:48:17.000Z</time>
      </trkpt>
      <trkpt lat="44.25579" lon="0.83886">
        <ele>153.6</ele>
        <time>2024-06-06T09:48:33.000Z</time>
      </trkpt>
      <trkpt lat="44.25578" lon="0.83887">
        <ele>153.7</ele>
        <time>2024-06-06T09:48:35.000Z</time>
      </trkpt>
      <trkpt lat="44.25575" lon="0.83887">
        <ele>154.5</ele>
        <time>2024-06-06T09:48:39.000Z</time>
      </trkpt>
      <trkpt lat="44.25572" lon="0.83887">
        <ele>155.1</ele>
        <time>2024-06-06T09:48:43.000Z</time>
      </trkpt>
      <trkpt lat="44.2557" lon="0.83889">
        <ele>155.4</ele>
        <time>2024-06-06T09:48:47.000Z</time>
      </trkpt>
      <trkpt lat="44.25565" lon="0.8389">
        <ele>156.6</ele>
        <time>2024-06-06T09:48:55.000Z</time>
      </trkpt>
      <trkpt lat="44.25559" lon="0.83891">
        <ele>157.9</ele>
        <time>2024-06-06T09:49:03.000Z</time>
      </trkpt>
      <trkpt lat="44.25557" lon="0.83892">
        <ele>158.3</ele>
        <time>2024-06-06T09:49:07.000Z</time>
      </trkpt>
      <trkpt lat="44.25552" lon="0.83892">
        <ele>159.6</ele>
        <time>2024-06-06T09:49:15.000Z</time>
      </trkpt>
      <trkpt lat="44.2555" lon="0.83893">
        <ele>160</ele>
        <time>2024-06-06T09:49:19.000Z</time>
      </trkpt>
      <trkpt lat="44.25542" lon="0.83893">
        <ele>161.8</ele>
        <time>2024-06-06T09:49:31.000Z</time>
      </trkpt>
      <trkpt lat="44.2554" lon="0.83893">
        <ele>162.2</ele>
        <time>2024-06-06T09:49:35.000Z</time>
      </trkpt>
      <trkpt lat="44.25536" lon="0.83892">
        <ele>163.3</ele>
        <time>2024-06-06T09:49:43.000Z</time>
      </trkpt>
      <trkpt lat="44.2553" lon="0.83892">
        <ele>164.8</ele>
        <time>2024-06-06T09:49:51.000Z</time>
      </trkpt>
      <trkpt lat="44.25526" lon="0.83893">
        <ele>165.5</ele>
        <time>2024-06-06T09:49:57.000Z</time>
      </trkpt>
      <trkpt lat="44.25523" lon="0.83895">
        <ele>165.5</ele>
        <time>2024-06-06T09:50:01.000Z</time>
      </trkpt>
      <trkpt lat="44.2552" lon="0.83896">
        <ele>166</ele>
        <time>2024-06-06T09:50:05.000Z</time>
      </trkpt>
      <trkpt lat="44.25517" lon="0.83899">
        <ele>166</ele>
        <time>2024-06-06T09:50:09.000Z</time>
      </trkpt>
      <trkpt lat="44.25514" lon="0.839">
        <ele>166.1</ele>
        <time>2024-06-06T09:50:13.000Z</time>
      </trkpt>
      <trkpt lat="44.25512" lon="0.83902">
        <ele>166.1</ele>
        <time>2024-06-06T09:50:17.000Z</time>
      </trkpt>
      <trkpt lat="44.25505" lon="0.83903">
        <ele>167</ele>
        <time>2024-06-06T09:50:25.000Z</time>
      </trkpt>
      <trkpt lat="44.25503" lon="0.83904">
        <ele>167.1</ele>
        <time>2024-06-06T09:50:27.000Z</time>
      </trkpt>
      <trkpt lat="44.25489" lon="0.83907">
        <ele>168.7</ele>
        <time>2024-06-06T09:50:43.000Z</time>
      </trkpt>
      <trkpt lat="44.25484" lon="0.83908">
        <ele>169.5</ele>
        <time>2024-06-06T09:50:51.000Z</time>
      </trkpt>
      <trkpt lat="44.25481" lon="0.83907">
        <ele>170.2</ele>
        <time>2024-06-06T09:50:55.000Z</time>
      </trkpt>
      <trkpt lat="44.25477" lon="0.83905">
        <ele>171.2</ele>
        <time>2024-06-06T09:50:59.000Z</time>
      </trkpt>
      <trkpt lat="44.25474" lon="0.83905">
        <ele>171.8</ele>
        <time>2024-06-06T09:51:03.000Z</time>
      </trkpt>
      <trkpt lat="44.25466" lon="0.83902">
        <ele>173.9</ele>
        <time>2024-06-06T09:51:19.000Z</time>
      </trkpt>
      <trkpt lat="44.25464" lon="0.83902">
        <ele>174.3</ele>
        <time>2024-06-06T09:51:23.000Z</time>
      </trkpt>
      <trkpt lat="44.25462" lon="0.83901">
        <ele>174.9</ele>
        <time>2024-06-06T09:51:27.000Z</time>
      </trkpt>
      <trkpt lat="44.25459" lon="0.83899">
        <ele>175.8</ele>
        <time>2024-06-06T09:51:33.000Z</time>
      </trkpt>
      <trkpt lat="44.25456" lon="0.83898">
        <ele>176.5</ele>
        <time>2024-06-06T09:51:37.000Z</time>
      </trkpt>
      <trkpt lat="44.25451" lon="0.83897">
        <ele>177.6</ele>
        <time>2024-06-06T09:51:45.000Z</time>
      </trkpt>
      <trkpt lat="44.25449" lon="0.83897">
        <ele>178.1</ele>
        <time>2024-06-06T09:51:48.000Z</time>
      </trkpt>
      <trkpt lat="44.25448" lon="0.83898">
        <ele>178</ele>
        <time>2024-06-06T09:51:52.000Z</time>
      </trkpt>
      <trkpt lat="44.25445" lon="0.83897">
        <ele>178.7</ele>
        <time>2024-06-06T09:51:56.000Z</time>
      </trkpt>
      <trkpt lat="44.25441" lon="0.83897">
        <ele>179.7</ele>
        <time>2024-06-06T09:52:04.000Z</time>
      </trkpt>
      <trkpt lat="44.2544" lon="0.83896">
        <ele>180.1</ele>
        <time>2024-06-06T09:52:06.000Z</time>
      </trkpt>
      <trkpt lat="44.25438" lon="0.83896">
        <ele>180.6</ele>
        <time>2024-06-06T09:52:08.000Z</time>
      </trkpt>
      <trkpt lat="44.25433" lon="0.83898">
        <ele>181.5</ele>
        <time>2024-06-06T09:52:14.000Z</time>
      </trkpt>
      <trkpt lat="44.25432" lon="0.83897">
        <ele>182</ele>
        <time>2024-06-06T09:52:18.000Z</time>
      </trkpt>
      <trkpt lat="44.25429" lon="0.83897">
        <ele>182.9</ele>
        <time>2024-06-06T09:52:24.000Z</time>
      </trkpt>
      <trkpt lat="44.25422" lon="0.83898">
        <ele>184.5</ele>
        <time>2024-06-06T09:52:40.000Z</time>
      </trkpt>
      <trkpt lat="44.25421" lon="0.839">
        <ele>184.4</ele>
        <time>2024-06-06T09:52:48.000Z</time>
      </trkpt>
      <trkpt lat="44.25418" lon="0.83901">
        <ele>184.9</ele>
        <time>2024-06-06T09:52:52.000Z</time>
      </trkpt>
      <trkpt lat="44.25415" lon="0.83903">
        <ele>185.4</ele>
        <time>2024-06-06T09:53:00.000Z</time>
      </trkpt>
      <trkpt lat="44.25409" lon="0.83905">
        <ele>186.5</ele>
        <time>2024-06-06T09:53:20.000Z</time>
      </trkpt>
      <trkpt lat="44.25409" lon="0.83905">
        <ele>186.5</ele>
        <time>2024-06-06T09:53:28.000Z</time>
      </trkpt>
      <trkpt lat="44.25403" lon="0.83909">
        <ele>187.4</ele>
        <time>2024-06-06T09:53:40.000Z</time>
      </trkpt>
      <trkpt lat="44.254" lon="0.83911">
        <ele>188</ele>
        <time>2024-06-06T09:53:44.000Z</time>
      </trkpt>
      <trkpt lat="44.25397" lon="0.83913">
        <ele>188.4</ele>
        <time>2024-06-06T09:53:48.000Z</time>
      </trkpt>
      <trkpt lat="44.25395" lon="0.83915">
        <ele>188.7</ele>
        <time>2024-06-06T09:53:52.000Z</time>
      </trkpt>
      <trkpt lat="44.25389" lon="0.83917">
        <ele>189.9</ele>
        <time>2024-06-06T09:54:00.000Z</time>
      </trkpt>
      <trkpt lat="44.25385" lon="0.83917">
        <ele>190.6</ele>
        <time>2024-06-06T09:54:04.000Z</time>
      </trkpt>
      <trkpt lat="44.25381" lon="0.83919">
        <ele>191.2</ele>
        <time>2024-06-06T09:54:08.000Z</time>
      </trkpt>
      <trkpt lat="44.25373" lon="0.83924">
        <ele>192.1</ele>
        <time>2024-06-06T09:54:16.000Z</time>
      </trkpt>
      <trkpt lat="44.25355" lon="0.83942">
        <ele>193.8</ele>
        <time>2024-06-06T09:54:40.000Z</time>
      </trkpt>
      <trkpt lat="44.2535" lon="0.83947">
        <ele>194</ele>
        <time>2024-06-06T09:54:46.000Z</time>
      </trkpt>
      <trkpt lat="44.25346" lon="0.83956">
        <ele>194</ele>
        <time>2024-06-06T09:54:54.000Z</time>
      </trkpt>
      <trkpt lat="44.25346" lon="0.83958">
        <ele>194</ele>
        <time>2024-06-06T09:54:58.000Z</time>
      </trkpt>
      <trkpt lat="44.25339" lon="0.83974">
        <ele>194.1</ele>
        <time>2024-06-06T09:55:18.000Z</time>
      </trkpt>
      <trkpt lat="44.25337" lon="0.83976">
        <ele>194.3</ele>
        <time>2024-06-06T09:55:22.000Z</time>
      </trkpt>
      <trkpt lat="44.25336" lon="0.83978">
        <ele>194.3</ele>
        <time>2024-06-06T09:55:26.000Z</time>
      </trkpt>
      <trkpt lat="44.25334" lon="0.83987">
        <ele>194.4</ele>
        <time>2024-06-06T09:56:32.000Z</time>
      </trkpt>
      <trkpt lat="44.2533" lon="0.83998">
        <ele>194.4</ele>
        <time>2024-06-06T09:56:48.000Z</time>
      </trkpt>
      <trkpt lat="44.25325" lon="0.84014">
        <ele>194.6</ele>
        <time>2024-06-06T09:57:04.000Z</time>
      </trkpt>
      <trkpt lat="44.25324" lon="0.84014">
        <ele>194.6</ele>
        <time>2024-06-06T09:57:08.000Z</time>
      </trkpt>
      <trkpt lat="44.25323" lon="0.84017">
        <ele>194.7</ele>
        <time>2024-06-06T09:57:20.000Z</time>
      </trkpt>
      <trkpt lat="44.25323" lon="0.84026">
        <ele>194.6</ele>
        <time>2024-06-06T09:57:28.000Z</time>
      </trkpt>
      <trkpt lat="44.25322" lon="0.8403">
        <ele>194.5</ele>
        <time>2024-06-06T09:57:32.000Z</time>
      </trkpt>
      <trkpt lat="44.25317" lon="0.84044">
        <ele>194.1</ele>
        <time>2024-06-06T09:58:04.000Z</time>
      </trkpt>
      <trkpt lat="44.25312" lon="0.84057">
        <ele>194.3</ele>
        <time>2024-06-06T09:58:20.000Z</time>
      </trkpt>
      <trkpt lat="44.25311" lon="0.84061">
        <ele>194.2</ele>
        <time>2024-06-06T09:58:24.000Z</time>
      </trkpt>
      <trkpt lat="44.25309" lon="0.84066">
        <ele>194.2</ele>
        <time>2024-06-06T09:59:12.000Z</time>
      </trkpt>
      <trkpt lat="44.25302" lon="0.84069">
        <ele>195.3</ele>
        <time>2024-06-06T09:59:38.000Z</time>
      </trkpt>
      <trkpt lat="44.253" lon="0.84068">
        <ele>195.6</ele>
        <time>2024-06-06T09:59:46.000Z</time>
      </trkpt>
      <trkpt lat="44.25289" lon="0.84062">
        <ele>196.8</ele>
        <time>2024-06-06T09:59:58.000Z</time>
      </trkpt>
      <trkpt lat="44.25277" lon="0.84061">
        <ele>197.8</ele>
        <time>2024-06-06T10:00:10.000Z</time>
      </trkpt>
      <trkpt lat="44.25274" lon="0.84061">
        <ele>197.8</ele>
        <time>2024-06-06T10:00:18.000Z</time>
      </trkpt>
      <trkpt lat="44.25271" lon="0.84061">
        <ele>197.8</ele>
        <time>2024-06-06T10:00:24.000Z</time>
      </trkpt>
      <trkpt lat="44.25266" lon="0.84056">
        <ele>198</ele>
        <time>2024-06-06T10:00:36.000Z</time>
      </trkpt>
      <trkpt lat="44.25267" lon="0.8405">
        <ele>197.8</ele>
        <time>2024-06-06T10:01:24.000Z</time>
      </trkpt>
      <trkpt lat="44.25265" lon="0.84051">
        <ele>197.8</ele>
        <time>2024-06-06T10:01:28.000Z</time>
      </trkpt>
      <trkpt lat="44.25271" lon="0.84031">
        <ele>197.6</ele>
        <time>2024-06-06T10:01:48.000Z</time>
      </trkpt>
      <trkpt lat="44.25273" lon="0.84027">
        <ele>197.6</ele>
        <time>2024-06-06T10:01:52.000Z</time>
      </trkpt>
      <trkpt lat="44.25275" lon="0.84022">
        <ele>197.5</ele>
        <time>2024-06-06T10:01:56.000Z</time>
      </trkpt>
      <trkpt lat="44.25277" lon="0.84018">
        <ele>197.5</ele>
        <time>2024-06-06T10:02:00.000Z</time>
      </trkpt>
      <trkpt lat="44.25279" lon="0.84004">
        <ele>197.1</ele>
        <time>2024-06-06T10:03:54.000Z</time>
      </trkpt>
      <trkpt lat="44.25283" lon="0.84">
        <ele>197</ele>
        <time>2024-06-06T10:05:50.000Z</time>
      </trkpt>
      <trkpt lat="44.25287" lon="0.83993">
        <ele>196.8</ele>
        <time>2024-06-06T10:05:58.000Z</time>
      </trkpt>
      <trkpt lat="44.25293" lon="0.83979">
        <ele>196.7</ele>
        <time>2024-06-06T10:06:10.000Z</time>
      </trkpt>
      <trkpt lat="44.25304" lon="0.83962">
        <ele>196.6</ele>
        <time>2024-06-06T10:06:38.000Z</time>
      </trkpt>
      <trkpt lat="44.25305" lon="0.8396">
        <ele>196.5</ele>
        <time>2024-06-06T10:06:42.000Z</time>
      </trkpt>
      <trkpt lat="44.25307" lon="0.83956">
        <ele>196.4</ele>
        <time>2024-06-06T10:06:46.000Z</time>
      </trkpt>
      <trkpt lat="44.25309" lon="0.83948">
        <ele>196.1</ele>
        <time>2024-06-06T10:06:54.000Z</time>
      </trkpt>
      <trkpt lat="44.25311" lon="0.83944">
        <ele>195.9</ele>
        <time>2024-06-06T10:06:58.000Z</time>
      </trkpt>
      <trkpt lat="44.25313" lon="0.83942">
        <ele>195.9</ele>
        <time>2024-06-06T10:07:02.000Z</time>
      </trkpt>
      <trkpt lat="44.25313" lon="0.8394">
        <ele>195.8</ele>
        <time>2024-06-06T10:07:06.000Z</time>
      </trkpt>
      <trkpt lat="44.25314" lon="0.83938">
        <ele>195.7</ele>
        <time>2024-06-06T10:07:10.000Z</time>
      </trkpt>
      <trkpt lat="44.25316" lon="0.83933">
        <ele>195.5</ele>
        <time>2024-06-06T10:07:14.000Z</time>
      </trkpt>
      <trkpt lat="44.25318" lon="0.83928">
        <ele>195.4</ele>
        <time>2024-06-06T10:07:18.000Z</time>
      </trkpt>
      <trkpt lat="44.25321" lon="0.83919">
        <ele>195.2</ele>
        <time>2024-06-06T10:07:26.000Z</time>
      </trkpt>
      <trkpt lat="44.25326" lon="0.8391">
        <ele>195.3</ele>
        <time>2024-06-06T10:07:34.000Z</time>
      </trkpt>
      <trkpt lat="44.25331" lon="0.83896">
        <ele>195.7</ele>
        <time>2024-06-06T10:07:46.000Z</time>
      </trkpt>
      <trkpt lat="44.25332" lon="0.83891">
        <ele>195.9</ele>
        <time>2024-06-06T10:07:50.000Z</time>
      </trkpt>
      <trkpt lat="44.25339" lon="0.83876">
        <ele>195.4</ele>
        <time>2024-06-06T10:08:02.000Z</time>
      </trkpt>
      <trkpt lat="44.25341" lon="0.8387">
        <ele>195.2</ele>
        <time>2024-06-06T10:08:06.000Z</time>
      </trkpt>
      <trkpt lat="44.25343" lon="0.83864">
        <ele>195.1</ele>
        <time>2024-06-06T10:08:10.000Z</time>
      </trkpt>
      <trkpt lat="44.25345" lon="0.83859">
        <ele>195</ele>
        <time>2024-06-06T10:08:14.000Z</time>
      </trkpt>
      <trkpt lat="44.25348" lon="0.83848">
        <ele>194.8</ele>
        <time>2024-06-06T10:08:22.000Z</time>
      </trkpt>
      <trkpt lat="44.25348" lon="0.83842">
        <ele>194.7</ele>
        <time>2024-06-06T10:08:29.000Z</time>
      </trkpt>
      <trkpt lat="44.25344" lon="0.83837">
        <ele>194.5</ele>
        <time>2024-06-06T10:08:33.000Z</time>
      </trkpt>
      <trkpt lat="44.25342" lon="0.83834">
        <ele>194.3</ele>
        <time>2024-06-06T10:08:37.000Z</time>
      </trkpt>
      <trkpt lat="44.2534" lon="0.83831">
        <ele>194.3</ele>
        <time>2024-06-06T10:08:39.000Z</time>
      </trkpt>
      <trkpt lat="44.25337" lon="0.83827">
        <ele>194.1</ele>
        <time>2024-06-06T10:08:43.000Z</time>
      </trkpt>
      <trkpt lat="44.25335" lon="0.83823">
        <ele>194.1</ele>
        <time>2024-06-06T10:08:47.000Z</time>
      </trkpt>
      <trkpt lat="44.25333" lon="0.83814">
        <ele>193.9</ele>
        <time>2024-06-06T10:08:55.000Z</time>
      </trkpt>
      <trkpt lat="44.25332" lon="0.8381">
        <ele>193.8</ele>
        <time>2024-06-06T10:08:59.000Z</time>
      </trkpt>
      <trkpt lat="44.25331" lon="0.83808">
        <ele>193.7</ele>
        <time>2024-06-06T10:09:01.000Z</time>
      </trkpt>
      <trkpt lat="44.2533" lon="0.83806">
        <ele>193.5</ele>
        <time>2024-06-06T10:09:03.000Z</time>
      </trkpt>
      <trkpt lat="44.25327" lon="0.83805">
        <ele>193.1</ele>
        <time>2024-06-06T10:09:07.000Z</time>
      </trkpt>
      <trkpt lat="44.25325" lon="0.83806">
        <ele>192.8</ele>
        <time>2024-06-06T10:09:13.000Z</time>
      </trkpt>
      <trkpt lat="44.2532" lon="0.83803">
        <ele>192</ele>
        <time>2024-06-06T10:09:15.000Z</time>
      </trkpt>
    </trkseg>
  </trk>
</gpx>